<?xml version="1.0" encoding="UTF-8" standalone="no" ?>
<gpx xmlns="http://www.topografix.com/GPX/1/1" xmlns:xsi="http://www.w3.org/2001/XMLSchema-instance" xsi:schemaLocation="http://www.topografix.com/GPX/1/1 http://www.topografix.com/GPX/1/1/gpx.xsd" version="1.1" creator="VisuGPX - https://www.visugpx.com">
  <metadata>
    <name>randonnée mairy</name>
    <desc><![CDATA[randonnée mairy aller te retour]]></desc>
  </metadata>
  <trk>
    <name><![CDATA[Tracé actuel: 28 OCT 2019 12:54]]></name>
    <trkseg>
      <trkpt lat="49.63454" lon="4.9805">
        <ele>189.04</ele>
        <time>2019-10-28T11:54:05Z</time>
      </trkpt>
      <trkpt lat="49.63444" lon="4.98057">
        <ele>180.38</ele>
        <time>2019-10-28T11:55:11Z</time>
      </trkpt>
      <trkpt lat="49.63437" lon="4.98039">
        <ele>173.17</ele>
        <time>2019-10-28T11:55:27Z</time>
      </trkpt>
      <trkpt lat="49.63429" lon="4.98029">
        <ele>169.33</ele>
        <time>2019-10-28T11:55:41Z</time>
      </trkpt>
      <trkpt lat="49.63416" lon="4.98012">
        <ele>164.52</ele>
        <time>2019-10-28T11:56:01Z</time>
      </trkpt>
      <trkpt lat="49.63405" lon="4.97988">
        <ele>165.96</ele>
        <time>2019-10-28T11:56:20Z</time>
      </trkpt>
      <trkpt lat="49.63394" lon="4.97976">
        <ele>161.16</ele>
        <time>2019-10-28T11:56:35Z</time>
      </trkpt>
      <trkpt lat="49.63386" lon="4.97962">
        <ele>159.24</ele>
        <time>2019-10-28T11:56:50Z</time>
      </trkpt>
      <trkpt lat="49.63387" lon="4.97954">
        <ele>158.75</ele>
        <time>2019-10-28T11:57:04Z</time>
      </trkpt>
      <trkpt lat="49.63395" lon="4.97941">
        <ele>159.24</ele>
        <time>2019-10-28T11:57:19Z</time>
      </trkpt>
      <trkpt lat="49.63409" lon="4.97918">
        <ele>167.41</ele>
        <time>2019-10-28T11:57:36Z</time>
      </trkpt>
      <trkpt lat="49.63426" lon="4.97907">
        <ele>166.93</ele>
        <time>2019-10-28T11:57:54Z</time>
      </trkpt>
      <trkpt lat="49.63447" lon="4.97901">
        <ele>165.96</ele>
        <time>2019-10-28T11:58:13Z</time>
      </trkpt>
      <trkpt lat="49.63459" lon="4.97887">
        <ele>164.04</ele>
        <time>2019-10-28T11:58:31Z</time>
      </trkpt>
      <trkpt lat="49.63472" lon="4.97869">
        <ele>161.16</ele>
        <time>2019-10-28T11:58:49Z</time>
      </trkpt>
      <trkpt lat="49.6348" lon="4.97855">
        <ele>158.75</ele>
        <time>2019-10-28T11:59:01Z</time>
      </trkpt>
      <trkpt lat="49.63491" lon="4.97837">
        <ele>157.79</ele>
        <time>2019-10-28T11:59:18Z</time>
      </trkpt>
      <trkpt lat="49.63504" lon="4.97821">
        <ele>150.58</ele>
        <time>2019-10-28T11:59:35Z</time>
      </trkpt>
      <trkpt lat="49.63521" lon="4.97807">
        <ele>149.62</ele>
        <time>2019-10-28T11:59:54Z</time>
      </trkpt>
      <trkpt lat="49.63534" lon="4.97789">
        <ele>152.51</ele>
        <time>2019-10-28T12:00:11Z</time>
      </trkpt>
      <trkpt lat="49.63545" lon="4.97774">
        <ele>150.1</ele>
        <time>2019-10-28T12:00:26Z</time>
      </trkpt>
      <trkpt lat="49.63552" lon="4.97747">
        <ele>154.91</ele>
        <time>2019-10-28T12:00:44Z</time>
      </trkpt>
      <trkpt lat="49.63561" lon="4.97727">
        <ele>156.35</ele>
        <time>2019-10-28T12:01:01Z</time>
      </trkpt>
      <trkpt lat="49.63569" lon="4.97714">
        <ele>154.91</ele>
        <time>2019-10-28T12:01:14Z</time>
      </trkpt>
      <trkpt lat="49.63577" lon="4.97698">
        <ele>155.87</ele>
        <time>2019-10-28T12:01:29Z</time>
      </trkpt>
      <trkpt lat="49.63587" lon="4.9768">
        <ele>156.35</ele>
        <time>2019-10-28T12:01:45Z</time>
      </trkpt>
      <trkpt lat="49.63607" lon="4.97669">
        <ele>154.43</ele>
        <time>2019-10-28T12:02:05Z</time>
      </trkpt>
      <trkpt lat="49.6361" lon="4.97668">
        <ele>154.91</ele>
        <time>2019-10-28T12:02:08Z</time>
      </trkpt>
      <trkpt lat="49.63625" lon="4.97676">
        <ele>154.43</ele>
        <time>2019-10-28T12:02:26Z</time>
      </trkpt>
      <trkpt lat="49.63637" lon="4.97687">
        <ele>156.83</ele>
        <time>2019-10-28T12:02:39Z</time>
      </trkpt>
      <trkpt lat="49.63656" lon="4.97705">
        <ele>162.6</ele>
        <time>2019-10-28T12:03:00Z</time>
      </trkpt>
      <trkpt lat="49.63657" lon="4.97705">
        <ele>162.6</ele>
        <time>2019-10-28T12:03:01Z</time>
      </trkpt>
      <trkpt lat="49.63665" lon="4.9771">
        <ele>163.56</ele>
        <time>2019-10-28T12:03:10Z</time>
      </trkpt>
      <trkpt lat="49.63686" lon="4.97728">
        <ele>165.48</ele>
        <time>2019-10-28T12:03:31Z</time>
      </trkpt>
      <trkpt lat="49.63703" lon="4.97741">
        <ele>162.12</ele>
        <time>2019-10-28T12:03:50Z</time>
      </trkpt>
      <trkpt lat="49.63717" lon="4.97753">
        <ele>159.24</ele>
        <time>2019-10-28T12:04:07Z</time>
      </trkpt>
      <trkpt lat="49.63739" lon="4.97769">
        <ele>159.72</ele>
        <time>2019-10-28T12:04:28Z</time>
      </trkpt>
      <trkpt lat="49.63756" lon="4.9778">
        <ele>158.27</ele>
        <time>2019-10-28T12:04:46Z</time>
      </trkpt>
      <trkpt lat="49.63775" lon="4.978">
        <ele>159.24</ele>
        <time>2019-10-28T12:05:06Z</time>
      </trkpt>
      <trkpt lat="49.63792" lon="4.97815">
        <ele>157.79</ele>
        <time>2019-10-28T12:05:26Z</time>
      </trkpt>
      <trkpt lat="49.63809" lon="4.97831">
        <ele>156.35</ele>
        <time>2019-10-28T12:05:43Z</time>
      </trkpt>
      <trkpt lat="49.63826" lon="4.97847">
        <ele>156.83</ele>
        <time>2019-10-28T12:06:02Z</time>
      </trkpt>
      <trkpt lat="49.63841" lon="4.9786">
        <ele>153.95</ele>
        <time>2019-10-28T12:06:19Z</time>
      </trkpt>
      <trkpt lat="49.63856" lon="4.97874">
        <ele>153.47</ele>
        <time>2019-10-28T12:06:35Z</time>
      </trkpt>
      <trkpt lat="49.63872" lon="4.97889">
        <ele>153.47</ele>
        <time>2019-10-28T12:06:52Z</time>
      </trkpt>
      <trkpt lat="49.63889" lon="4.97904">
        <ele>152.03</ele>
        <time>2019-10-28T12:07:10Z</time>
      </trkpt>
      <trkpt lat="49.63907" lon="4.9792">
        <ele>151.06</ele>
        <time>2019-10-28T12:07:31Z</time>
      </trkpt>
      <trkpt lat="49.63925" lon="4.9794">
        <ele>151.06</ele>
        <time>2019-10-28T12:07:50Z</time>
      </trkpt>
      <trkpt lat="49.63945" lon="4.97961">
        <ele>152.03</ele>
        <time>2019-10-28T12:08:09Z</time>
      </trkpt>
      <trkpt lat="49.63962" lon="4.97977">
        <ele>150.58</ele>
        <time>2019-10-28T12:08:29Z</time>
      </trkpt>
      <trkpt lat="49.63979" lon="4.97992">
        <ele>149.14</ele>
        <time>2019-10-28T12:08:48Z</time>
      </trkpt>
      <trkpt lat="49.63992" lon="4.98003">
        <ele>149.14</ele>
        <time>2019-10-28T12:09:04Z</time>
      </trkpt>
      <trkpt lat="49.64012" lon="4.98021">
        <ele>148.66</ele>
        <time>2019-10-28T12:09:26Z</time>
      </trkpt>
      <trkpt lat="49.64025" lon="4.98034">
        <ele>146.74</ele>
        <time>2019-10-28T12:09:44Z</time>
      </trkpt>
      <trkpt lat="49.64043" lon="4.98051">
        <ele>146.74</ele>
        <time>2019-10-28T12:10:04Z</time>
      </trkpt>
      <trkpt lat="49.64066" lon="4.98072">
        <ele>146.74</ele>
        <time>2019-10-28T12:10:27Z</time>
      </trkpt>
      <trkpt lat="49.64086" lon="4.9809">
        <ele>148.18</ele>
        <time>2019-10-28T12:10:46Z</time>
      </trkpt>
      <trkpt lat="49.64101" lon="4.98103">
        <ele>147.22</ele>
        <time>2019-10-28T12:11:06Z</time>
      </trkpt>
      <trkpt lat="49.64119" lon="4.98119">
        <ele>146.26</ele>
        <time>2019-10-28T12:11:25Z</time>
      </trkpt>
      <trkpt lat="49.64135" lon="4.98136">
        <ele>146.26</ele>
        <time>2019-10-28T12:11:45Z</time>
      </trkpt>
      <trkpt lat="49.64155" lon="4.98157">
        <ele>150.1</ele>
        <time>2019-10-28T12:12:04Z</time>
      </trkpt>
      <trkpt lat="49.64169" lon="4.98172">
        <ele>151.54</ele>
        <time>2019-10-28T12:12:22Z</time>
      </trkpt>
      <trkpt lat="49.64188" lon="4.98188">
        <ele>151.06</ele>
        <time>2019-10-28T12:12:41Z</time>
      </trkpt>
      <trkpt lat="49.64204" lon="4.98204">
        <ele>149.62</ele>
        <time>2019-10-28T12:12:58Z</time>
      </trkpt>
      <trkpt lat="49.64222" lon="4.98221">
        <ele>151.06</ele>
        <time>2019-10-28T12:13:17Z</time>
      </trkpt>
      <trkpt lat="49.64241" lon="4.98239">
        <ele>150.58</ele>
        <time>2019-10-28T12:13:37Z</time>
      </trkpt>
      <trkpt lat="49.64261" lon="4.98256">
        <ele>154.43</ele>
        <time>2019-10-28T12:13:57Z</time>
      </trkpt>
      <trkpt lat="49.6428" lon="4.98275">
        <ele>152.51</ele>
        <time>2019-10-28T12:14:17Z</time>
      </trkpt>
      <trkpt lat="49.64296" lon="4.9829">
        <ele>152.99</ele>
        <time>2019-10-28T12:14:35Z</time>
      </trkpt>
      <trkpt lat="49.64311" lon="4.98299">
        <ele>150.1</ele>
        <time>2019-10-28T12:14:54Z</time>
      </trkpt>
      <trkpt lat="49.64326" lon="4.98312">
        <ele>147.7</ele>
        <time>2019-10-28T12:15:11Z</time>
      </trkpt>
      <trkpt lat="49.64344" lon="4.98327">
        <ele>144.34</ele>
        <time>2019-10-28T12:15:31Z</time>
      </trkpt>
      <trkpt lat="49.64364" lon="4.98344">
        <ele>150.58</ele>
        <time>2019-10-28T12:15:49Z</time>
      </trkpt>
      <trkpt lat="49.64383" lon="4.98357">
        <ele>150.58</ele>
        <time>2019-10-28T12:16:11Z</time>
      </trkpt>
      <trkpt lat="49.64398" lon="4.98367">
        <ele>148.18</ele>
        <time>2019-10-28T12:16:29Z</time>
      </trkpt>
      <trkpt lat="49.64423" lon="4.98386">
        <ele>149.14</ele>
        <time>2019-10-28T12:16:51Z</time>
      </trkpt>
      <trkpt lat="49.64443" lon="4.98398">
        <ele>151.54</ele>
        <time>2019-10-28T12:17:09Z</time>
      </trkpt>
      <trkpt lat="49.64459" lon="4.98409">
        <ele>152.03</ele>
        <time>2019-10-28T12:17:27Z</time>
      </trkpt>
      <trkpt lat="49.64479" lon="4.98424">
        <ele>153.47</ele>
        <time>2019-10-28T12:17:46Z</time>
      </trkpt>
      <trkpt lat="49.64498" lon="4.98435">
        <ele>150.1</ele>
        <time>2019-10-28T12:18:08Z</time>
      </trkpt>
      <trkpt lat="49.64517" lon="4.98447">
        <ele>150.58</ele>
        <time>2019-10-28T12:18:25Z</time>
      </trkpt>
      <trkpt lat="49.64542" lon="4.98461">
        <ele>153.47</ele>
        <time>2019-10-28T12:18:48Z</time>
      </trkpt>
      <trkpt lat="49.64568" lon="4.98476">
        <ele>154.91</ele>
        <time>2019-10-28T12:19:11Z</time>
      </trkpt>
      <trkpt lat="49.64584" lon="4.98485">
        <ele>154.43</ele>
        <time>2019-10-28T12:19:26Z</time>
      </trkpt>
      <trkpt lat="49.64588" lon="4.98488">
        <ele>154.43</ele>
        <time>2019-10-28T12:19:30Z</time>
      </trkpt>
      <trkpt lat="49.64605" lon="4.98498">
        <ele>156.83</ele>
        <time>2019-10-28T12:19:50Z</time>
      </trkpt>
      <trkpt lat="49.64624" lon="4.98507">
        <ele>156.35</ele>
        <time>2019-10-28T12:20:08Z</time>
      </trkpt>
      <trkpt lat="49.64643" lon="4.98517">
        <ele>155.39</ele>
        <time>2019-10-28T12:20:26Z</time>
      </trkpt>
      <trkpt lat="49.64669" lon="4.9853">
        <ele>158.27</ele>
        <time>2019-10-28T12:20:50Z</time>
      </trkpt>
      <trkpt lat="49.64688" lon="4.98541">
        <ele>157.79</ele>
        <time>2019-10-28T12:21:09Z</time>
      </trkpt>
      <trkpt lat="49.64709" lon="4.98552">
        <ele>158.27</ele>
        <time>2019-10-28T12:21:29Z</time>
      </trkpt>
      <trkpt lat="49.64726" lon="4.98562">
        <ele>154.91</ele>
        <time>2019-10-28T12:21:48Z</time>
      </trkpt>
      <trkpt lat="49.64746" lon="4.98573">
        <ele>155.39</ele>
        <time>2019-10-28T12:22:07Z</time>
      </trkpt>
      <trkpt lat="49.64768" lon="4.98585">
        <ele>158.27</ele>
        <time>2019-10-28T12:22:27Z</time>
      </trkpt>
      <trkpt lat="49.6479" lon="4.98597">
        <ele>163.08</ele>
        <time>2019-10-28T12:22:46Z</time>
      </trkpt>
      <trkpt lat="49.64809" lon="4.98606">
        <ele>163.56</ele>
        <time>2019-10-28T12:23:04Z</time>
      </trkpt>
      <trkpt lat="49.64827" lon="4.98618">
        <ele>162.12</ele>
        <time>2019-10-28T12:23:22Z</time>
      </trkpt>
      <trkpt lat="49.64845" lon="4.9863">
        <ele>162.12</ele>
        <time>2019-10-28T12:23:40Z</time>
      </trkpt>
      <trkpt lat="49.64865" lon="4.98642">
        <ele>161.16</ele>
        <time>2019-10-28T12:24:00Z</time>
      </trkpt>
      <trkpt lat="49.64885" lon="4.98656">
        <ele>160.2</ele>
        <time>2019-10-28T12:24:21Z</time>
      </trkpt>
      <trkpt lat="49.64904" lon="4.98672">
        <ele>157.79</ele>
        <time>2019-10-28T12:24:42Z</time>
      </trkpt>
      <trkpt lat="49.64923" lon="4.98681">
        <ele>159.24</ele>
        <time>2019-10-28T12:25:00Z</time>
      </trkpt>
      <trkpt lat="49.64938" lon="4.98688">
        <ele>159.24</ele>
        <time>2019-10-28T12:25:15Z</time>
      </trkpt>
      <trkpt lat="49.64955" lon="4.98701">
        <ele>158.27</ele>
        <time>2019-10-28T12:25:35Z</time>
      </trkpt>
      <trkpt lat="49.64974" lon="4.9872">
        <ele>158.27</ele>
        <time>2019-10-28T12:25:55Z</time>
      </trkpt>
      <trkpt lat="49.64996" lon="4.9874">
        <ele>159.72</ele>
        <time>2019-10-28T12:26:16Z</time>
      </trkpt>
      <trkpt lat="49.65008" lon="4.98751">
        <ele>159.72</ele>
        <time>2019-10-28T12:26:33Z</time>
      </trkpt>
      <trkpt lat="49.65025" lon="4.98767">
        <ele>157.31</ele>
        <time>2019-10-28T12:26:51Z</time>
      </trkpt>
      <trkpt lat="49.65042" lon="4.98784">
        <ele>155.87</ele>
        <time>2019-10-28T12:27:10Z</time>
      </trkpt>
      <trkpt lat="49.65061" lon="4.988">
        <ele>155.87</ele>
        <time>2019-10-28T12:27:29Z</time>
      </trkpt>
      <trkpt lat="49.65081" lon="4.9882">
        <ele>157.79</ele>
        <time>2019-10-28T12:27:51Z</time>
      </trkpt>
      <trkpt lat="49.6509" lon="4.98831">
        <ele>155.87</ele>
        <time>2019-10-28T12:28:06Z</time>
      </trkpt>
      <trkpt lat="49.65107" lon="4.98848">
        <ele>153.47</ele>
        <time>2019-10-28T12:28:26Z</time>
      </trkpt>
      <trkpt lat="49.65124" lon="4.98865">
        <ele>151.06</ele>
        <time>2019-10-28T12:28:45Z</time>
      </trkpt>
      <trkpt lat="49.65142" lon="4.98884">
        <ele>149.62</ele>
        <time>2019-10-28T12:29:06Z</time>
      </trkpt>
      <trkpt lat="49.65162" lon="4.98901">
        <ele>149.62</ele>
        <time>2019-10-28T12:29:28Z</time>
      </trkpt>
      <trkpt lat="49.65182" lon="4.9892">
        <ele>149.14</ele>
        <time>2019-10-28T12:29:49Z</time>
      </trkpt>
      <trkpt lat="49.65201" lon="4.98935">
        <ele>149.14</ele>
        <time>2019-10-28T12:30:08Z</time>
      </trkpt>
      <trkpt lat="49.65221" lon="4.98955">
        <ele>150.58</ele>
        <time>2019-10-28T12:30:29Z</time>
      </trkpt>
      <trkpt lat="49.65239" lon="4.98973">
        <ele>152.03</ele>
        <time>2019-10-28T12:30:49Z</time>
      </trkpt>
      <trkpt lat="49.65257" lon="4.98987">
        <ele>153.95</ele>
        <time>2019-10-28T12:31:07Z</time>
      </trkpt>
      <trkpt lat="49.65279" lon="4.99004">
        <ele>154.43</ele>
        <time>2019-10-28T12:31:29Z</time>
      </trkpt>
      <trkpt lat="49.65296" lon="4.99022">
        <ele>154.91</ele>
        <time>2019-10-28T12:31:48Z</time>
      </trkpt>
      <trkpt lat="49.65312" lon="4.99037">
        <ele>154.43</ele>
        <time>2019-10-28T12:32:06Z</time>
      </trkpt>
      <trkpt lat="49.65319" lon="4.99051">
        <ele>154.43</ele>
        <time>2019-10-28T12:32:19Z</time>
      </trkpt>
      <trkpt lat="49.6533" lon="4.9908">
        <ele>155.39</ele>
        <time>2019-10-28T12:32:38Z</time>
      </trkpt>
      <trkpt lat="49.65337" lon="4.99106">
        <ele>153.95</ele>
        <time>2019-10-28T12:32:57Z</time>
      </trkpt>
      <trkpt lat="49.65348" lon="4.99133">
        <ele>150.1</ele>
        <time>2019-10-28T12:33:18Z</time>
      </trkpt>
      <trkpt lat="49.65362" lon="4.99156">
        <ele>151.54</ele>
        <time>2019-10-28T12:33:37Z</time>
      </trkpt>
      <trkpt lat="49.65372" lon="4.99179">
        <ele>152.51</ele>
        <time>2019-10-28T12:33:55Z</time>
      </trkpt>
      <trkpt lat="49.65371" lon="4.99181">
        <ele>152.51</ele>
        <time>2019-10-28T12:33:56Z</time>
      </trkpt>
      <trkpt lat="49.6537" lon="4.99196">
        <ele>152.51</ele>
        <time>2019-10-28T12:34:06Z</time>
      </trkpt>
      <trkpt lat="49.65382" lon="4.99188">
        <ele>154.91</ele>
        <time>2019-10-28T12:34:20Z</time>
      </trkpt>
      <trkpt lat="49.65395" lon="4.992">
        <ele>151.06</ele>
        <time>2019-10-28T12:34:36Z</time>
      </trkpt>
      <trkpt lat="49.65408" lon="4.99216">
        <ele>152.03</ele>
        <time>2019-10-28T12:34:51Z</time>
      </trkpt>
      <trkpt lat="49.65424" lon="4.99238">
        <ele>152.99</ele>
        <time>2019-10-28T12:35:10Z</time>
      </trkpt>
      <trkpt lat="49.65438" lon="4.99265">
        <ele>153.47</ele>
        <time>2019-10-28T12:35:31Z</time>
      </trkpt>
      <trkpt lat="49.65442" lon="4.9927">
        <ele>152.99</ele>
        <time>2019-10-28T12:35:36Z</time>
      </trkpt>
      <trkpt lat="49.65447" lon="4.99278">
        <ele>152.03</ele>
        <time>2019-10-28T12:35:42Z</time>
      </trkpt>
      <trkpt lat="49.65455" lon="4.99285">
        <ele>152.99</ele>
        <time>2019-10-28T12:35:50Z</time>
      </trkpt>
      <trkpt lat="49.65468" lon="4.99279">
        <ele>155.87</ele>
        <time>2019-10-28T12:36:03Z</time>
      </trkpt>
      <trkpt lat="49.65477" lon="4.99257">
        <ele>155.39</ele>
        <time>2019-10-28T12:36:20Z</time>
      </trkpt>
      <trkpt lat="49.65487" lon="4.99223">
        <ele>152.03</ele>
        <time>2019-10-28T12:36:42Z</time>
      </trkpt>
      <trkpt lat="49.65497" lon="4.99198">
        <ele>154.43</ele>
        <time>2019-10-28T12:37:01Z</time>
      </trkpt>
      <trkpt lat="49.65499" lon="4.99198">
        <ele>154.43</ele>
        <time>2019-10-28T12:37:03Z</time>
      </trkpt>
      <trkpt lat="49.6552" lon="4.99211">
        <ele>154.43</ele>
        <time>2019-10-28T12:37:22Z</time>
      </trkpt>
      <trkpt lat="49.65539" lon="4.9922">
        <ele>153.95</ele>
        <time>2019-10-28T12:37:39Z</time>
      </trkpt>
      <trkpt lat="49.65556" lon="4.99235">
        <ele>152.99</ele>
        <time>2019-10-28T12:37:57Z</time>
      </trkpt>
      <trkpt lat="49.65561" lon="4.99257">
        <ele>152.03</ele>
        <time>2019-10-28T12:38:16Z</time>
      </trkpt>
      <trkpt lat="49.65557" lon="4.99263">
        <ele>151.54</ele>
        <time>2019-10-28T12:38:21Z</time>
      </trkpt>
      <trkpt lat="49.65537" lon="4.99293">
        <ele>151.54</ele>
        <time>2019-10-28T12:38:45Z</time>
      </trkpt>
      <trkpt lat="49.65522" lon="4.9932">
        <ele>151.54</ele>
        <time>2019-10-28T12:39:07Z</time>
      </trkpt>
      <trkpt lat="49.65507" lon="4.99344">
        <ele>152.51</ele>
        <time>2019-10-28T12:39:26Z</time>
      </trkpt>
      <trkpt lat="49.65494" lon="4.99367">
        <ele>150.58</ele>
        <time>2019-10-28T12:39:44Z</time>
      </trkpt>
      <trkpt lat="49.65479" lon="4.99392">
        <ele>149.62</ele>
        <time>2019-10-28T12:40:04Z</time>
      </trkpt>
      <trkpt lat="49.65463" lon="4.99419">
        <ele>150.1</ele>
        <time>2019-10-28T12:40:25Z</time>
      </trkpt>
      <trkpt lat="49.65447" lon="4.99444">
        <ele>149.14</ele>
        <time>2019-10-28T12:40:45Z</time>
      </trkpt>
      <trkpt lat="49.65435" lon="4.99464">
        <ele>148.66</ele>
        <time>2019-10-28T12:41:02Z</time>
      </trkpt>
      <trkpt lat="49.6542" lon="4.99491">
        <ele>147.22</ele>
        <time>2019-10-28T12:41:23Z</time>
      </trkpt>
      <trkpt lat="49.65406" lon="4.99515">
        <ele>145.3</ele>
        <time>2019-10-28T12:41:43Z</time>
      </trkpt>
      <trkpt lat="49.65391" lon="4.99542">
        <ele>142.89</ele>
        <time>2019-10-28T12:42:04Z</time>
      </trkpt>
      <trkpt lat="49.65375" lon="4.99571">
        <ele>144.34</ele>
        <time>2019-10-28T12:42:25Z</time>
      </trkpt>
      <trkpt lat="49.65356" lon="4.99595">
        <ele>142.41</ele>
        <time>2019-10-28T12:42:45Z</time>
      </trkpt>
      <trkpt lat="49.65344" lon="4.99624">
        <ele>140.49</ele>
        <time>2019-10-28T12:43:07Z</time>
      </trkpt>
      <trkpt lat="49.65334" lon="4.99653">
        <ele>139.05</ele>
        <time>2019-10-28T12:43:26Z</time>
      </trkpt>
      <trkpt lat="49.65322" lon="4.99682">
        <ele>138.09</ele>
        <time>2019-10-28T12:43:48Z</time>
      </trkpt>
      <trkpt lat="49.65309" lon="4.99711">
        <ele>134.24</ele>
        <time>2019-10-28T12:44:09Z</time>
      </trkpt>
      <trkpt lat="49.65295" lon="4.9974">
        <ele>132.32</ele>
        <time>2019-10-28T12:44:30Z</time>
      </trkpt>
      <trkpt lat="49.65282" lon="4.99772">
        <ele>132.32</ele>
        <time>2019-10-28T12:44:54Z</time>
      </trkpt>
      <trkpt lat="49.65271" lon="4.99797">
        <ele>130.88</ele>
        <time>2019-10-28T12:45:13Z</time>
      </trkpt>
      <trkpt lat="49.65258" lon="4.99825">
        <ele>130.88</ele>
        <time>2019-10-28T12:45:33Z</time>
      </trkpt>
      <trkpt lat="49.65244" lon="4.9985">
        <ele>135.68</ele>
        <time>2019-10-28T12:45:51Z</time>
      </trkpt>
      <trkpt lat="49.65225" lon="4.99881">
        <ele>144.82</ele>
        <time>2019-10-28T12:46:13Z</time>
      </trkpt>
      <trkpt lat="49.65224" lon="4.9989">
        <ele>145.3</ele>
        <time>2019-10-28T12:46:22Z</time>
      </trkpt>
      <trkpt lat="49.65241" lon="4.99912">
        <ele>147.22</ele>
        <time>2019-10-28T12:46:41Z</time>
      </trkpt>
      <trkpt lat="49.65259" lon="4.99929">
        <ele>147.22</ele>
        <time>2019-10-28T12:47:00Z</time>
      </trkpt>
      <trkpt lat="49.65273" lon="4.99939">
        <ele>145.78</ele>
        <time>2019-10-28T12:47:15Z</time>
      </trkpt>
      <trkpt lat="49.6529" lon="4.99964">
        <ele>145.3</ele>
        <time>2019-10-28T12:47:36Z</time>
      </trkpt>
      <trkpt lat="49.65305" lon="4.99982">
        <ele>145.3</ele>
        <time>2019-10-28T12:47:54Z</time>
      </trkpt>
      <trkpt lat="49.6532" lon="5.00006">
        <ele>149.62</ele>
        <time>2019-10-28T12:48:14Z</time>
      </trkpt>
      <trkpt lat="49.65339" lon="5.00032">
        <ele>151.06</ele>
        <time>2019-10-28T12:48:35Z</time>
      </trkpt>
      <trkpt lat="49.65357" lon="5.00052">
        <ele>151.06</ele>
        <time>2019-10-28T12:48:55Z</time>
      </trkpt>
      <trkpt lat="49.65375" lon="5.0007">
        <ele>150.58</ele>
        <time>2019-10-28T12:49:15Z</time>
      </trkpt>
      <trkpt lat="49.65391" lon="5.00087">
        <ele>148.18</ele>
        <time>2019-10-28T12:49:33Z</time>
      </trkpt>
      <trkpt lat="49.65408" lon="5.00109">
        <ele>147.22</ele>
        <time>2019-10-28T12:49:54Z</time>
      </trkpt>
      <trkpt lat="49.65419" lon="5.00131">
        <ele>147.7</ele>
        <time>2019-10-28T12:50:11Z</time>
      </trkpt>
      <trkpt lat="49.65417" lon="5.00138">
        <ele>148.66</ele>
        <time>2019-10-28T12:50:15Z</time>
      </trkpt>
      <trkpt lat="49.65426" lon="5.0017">
        <ele>147.7</ele>
        <time>2019-10-28T12:50:36Z</time>
      </trkpt>
      <trkpt lat="49.6544" lon="5.002">
        <ele>148.18</ele>
        <time>2019-10-28T12:50:58Z</time>
      </trkpt>
      <trkpt lat="49.65455" lon="5.00233">
        <ele>147.7</ele>
        <time>2019-10-28T12:51:22Z</time>
      </trkpt>
      <trkpt lat="49.6547" lon="5.00265">
        <ele>146.26</ele>
        <time>2019-10-28T12:51:45Z</time>
      </trkpt>
      <trkpt lat="49.65485" lon="5.00296">
        <ele>144.82</ele>
        <time>2019-10-28T12:52:07Z</time>
      </trkpt>
      <trkpt lat="49.65497" lon="5.00325">
        <ele>144.82</ele>
        <time>2019-10-28T12:52:27Z</time>
      </trkpt>
      <trkpt lat="49.65512" lon="5.0036">
        <ele>146.74</ele>
        <time>2019-10-28T12:52:52Z</time>
      </trkpt>
      <trkpt lat="49.65526" lon="5.00389">
        <ele>146.26</ele>
        <time>2019-10-28T12:53:13Z</time>
      </trkpt>
      <trkpt lat="49.65539" lon="5.00417">
        <ele>146.74</ele>
        <time>2019-10-28T12:53:33Z</time>
      </trkpt>
      <trkpt lat="49.65554" lon="5.00449">
        <ele>147.22</ele>
        <time>2019-10-28T12:53:56Z</time>
      </trkpt>
      <trkpt lat="49.65568" lon="5.00481">
        <ele>147.22</ele>
        <time>2019-10-28T12:54:19Z</time>
      </trkpt>
      <trkpt lat="49.65584" lon="5.00513">
        <ele>148.18</ele>
        <time>2019-10-28T12:54:43Z</time>
      </trkpt>
      <trkpt lat="49.65598" lon="5.00545">
        <ele>147.7</ele>
        <time>2019-10-28T12:55:06Z</time>
      </trkpt>
      <trkpt lat="49.65613" lon="5.00577">
        <ele>147.7</ele>
        <time>2019-10-28T12:55:29Z</time>
      </trkpt>
      <trkpt lat="49.65624" lon="5.0061">
        <ele>147.7</ele>
        <time>2019-10-28T12:55:51Z</time>
      </trkpt>
      <trkpt lat="49.65633" lon="5.00645">
        <ele>147.7</ele>
        <time>2019-10-28T12:56:13Z</time>
      </trkpt>
      <trkpt lat="49.65639" lon="5.00682">
        <ele>148.18</ele>
        <time>2019-10-28T12:56:35Z</time>
      </trkpt>
      <trkpt lat="49.65644" lon="5.00718">
        <ele>148.18</ele>
        <time>2019-10-28T12:56:56Z</time>
      </trkpt>
      <trkpt lat="49.65649" lon="5.00759">
        <ele>149.14</ele>
        <time>2019-10-28T12:57:20Z</time>
      </trkpt>
      <trkpt lat="49.65654" lon="5.00796">
        <ele>148.66</ele>
        <time>2019-10-28T12:57:42Z</time>
      </trkpt>
      <trkpt lat="49.65659" lon="5.00837">
        <ele>148.18</ele>
        <time>2019-10-28T12:58:06Z</time>
      </trkpt>
      <trkpt lat="49.65665" lon="5.00877">
        <ele>146.74</ele>
        <time>2019-10-28T12:58:29Z</time>
      </trkpt>
      <trkpt lat="49.65668" lon="5.00911">
        <ele>146.26</ele>
        <time>2019-10-28T12:58:49Z</time>
      </trkpt>
      <trkpt lat="49.65672" lon="5.00941">
        <ele>146.26</ele>
        <time>2019-10-28T12:59:07Z</time>
      </trkpt>
      <trkpt lat="49.65676" lon="5.00971">
        <ele>146.26</ele>
        <time>2019-10-28T12:59:26Z</time>
      </trkpt>
      <trkpt lat="49.65678" lon="5.01006">
        <ele>146.26</ele>
        <time>2019-10-28T12:59:46Z</time>
      </trkpt>
      <trkpt lat="49.65681" lon="5.01041">
        <ele>146.26</ele>
        <time>2019-10-28T13:00:06Z</time>
      </trkpt>
      <trkpt lat="49.65684" lon="5.01079">
        <ele>146.74</ele>
        <time>2019-10-28T13:00:28Z</time>
      </trkpt>
      <trkpt lat="49.65686" lon="5.01115">
        <ele>145.3</ele>
        <time>2019-10-28T13:00:50Z</time>
      </trkpt>
      <trkpt lat="49.65689" lon="5.01145">
        <ele>145.3</ele>
        <time>2019-10-28T13:01:08Z</time>
      </trkpt>
      <trkpt lat="49.65691" lon="5.01177">
        <ele>146.26</ele>
        <time>2019-10-28T13:01:27Z</time>
      </trkpt>
      <trkpt lat="49.65694" lon="5.01211">
        <ele>147.22</ele>
        <time>2019-10-28T13:01:47Z</time>
      </trkpt>
      <trkpt lat="49.65696" lon="5.01242">
        <ele>146.74</ele>
        <time>2019-10-28T13:02:07Z</time>
      </trkpt>
      <trkpt lat="49.65699" lon="5.01276">
        <ele>146.74</ele>
        <time>2019-10-28T13:02:26Z</time>
      </trkpt>
      <trkpt lat="49.65702" lon="5.01309">
        <ele>146.74</ele>
        <time>2019-10-28T13:02:46Z</time>
      </trkpt>
      <trkpt lat="49.65704" lon="5.01341">
        <ele>148.18</ele>
        <time>2019-10-28T13:03:04Z</time>
      </trkpt>
      <trkpt lat="49.65707" lon="5.01373">
        <ele>148.66</ele>
        <time>2019-10-28T13:03:24Z</time>
      </trkpt>
      <trkpt lat="49.65711" lon="5.0141">
        <ele>149.62</ele>
        <time>2019-10-28T13:03:46Z</time>
      </trkpt>
      <trkpt lat="49.65712" lon="5.01431">
        <ele>151.54</ele>
        <time>2019-10-28T13:04:04Z</time>
      </trkpt>
      <trkpt lat="49.65711" lon="5.0143">
        <ele>153.95</ele>
        <time>2019-10-28T13:04:20Z</time>
      </trkpt>
      <trkpt lat="49.65711" lon="5.01429">
        <ele>153.47</ele>
        <time>2019-10-28T13:04:47Z</time>
      </trkpt>
      <trkpt lat="49.65711" lon="5.01431">
        <ele>153.47</ele>
        <time>2019-10-28T13:05:18Z</time>
      </trkpt>
      <trkpt lat="49.65711" lon="5.01431">
        <ele>153.47</ele>
        <time>2019-10-28T13:05:35Z</time>
      </trkpt>
      <trkpt lat="49.6571" lon="5.01431">
        <ele>153.47</ele>
        <time>2019-10-28T13:05:52Z</time>
      </trkpt>
      <trkpt lat="49.65711" lon="5.0143">
        <ele>153.95</ele>
        <time>2019-10-28T13:06:21Z</time>
      </trkpt>
      <trkpt lat="49.65716" lon="5.01435">
        <ele>152.99</ele>
        <time>2019-10-28T13:06:32Z</time>
      </trkpt>
      <trkpt lat="49.65721" lon="5.01442">
        <ele>152.99</ele>
        <time>2019-10-28T13:06:38Z</time>
      </trkpt>
      <trkpt lat="49.65727" lon="5.01474">
        <ele>152.51</ele>
        <time>2019-10-28T13:06:58Z</time>
      </trkpt>
      <trkpt lat="49.65734" lon="5.0151">
        <ele>152.51</ele>
        <time>2019-10-28T13:07:19Z</time>
      </trkpt>
      <trkpt lat="49.65744" lon="5.01542">
        <ele>152.03</ele>
        <time>2019-10-28T13:07:40Z</time>
      </trkpt>
      <trkpt lat="49.65755" lon="5.01572">
        <ele>152.51</ele>
        <time>2019-10-28T13:08:01Z</time>
      </trkpt>
      <trkpt lat="49.65766" lon="5.01601">
        <ele>151.54</ele>
        <time>2019-10-28T13:08:21Z</time>
      </trkpt>
      <trkpt lat="49.65777" lon="5.01625">
        <ele>150.1</ele>
        <time>2019-10-28T13:08:39Z</time>
      </trkpt>
      <trkpt lat="49.65781" lon="5.01634">
        <ele>150.58</ele>
        <time>2019-10-28T13:08:47Z</time>
      </trkpt>
      <trkpt lat="49.65767" lon="5.01658">
        <ele>151.06</ele>
        <time>2019-10-28T13:09:06Z</time>
      </trkpt>
      <trkpt lat="49.65746" lon="5.01679">
        <ele>151.54</ele>
        <time>2019-10-28T13:09:29Z</time>
      </trkpt>
      <trkpt lat="49.65725" lon="5.01697">
        <ele>152.03</ele>
        <time>2019-10-28T13:09:50Z</time>
      </trkpt>
      <trkpt lat="49.65703" lon="5.01717">
        <ele>152.51</ele>
        <time>2019-10-28T13:10:12Z</time>
      </trkpt>
      <trkpt lat="49.65682" lon="5.01735">
        <ele>151.54</ele>
        <time>2019-10-28T13:10:34Z</time>
      </trkpt>
      <trkpt lat="49.65664" lon="5.0175">
        <ele>151.06</ele>
        <time>2019-10-28T13:10:52Z</time>
      </trkpt>
      <trkpt lat="49.65642" lon="5.0177">
        <ele>152.03</ele>
        <time>2019-10-28T13:11:14Z</time>
      </trkpt>
      <trkpt lat="49.65621" lon="5.0179">
        <ele>150.58</ele>
        <time>2019-10-28T13:11:36Z</time>
      </trkpt>
      <trkpt lat="49.65601" lon="5.01807">
        <ele>151.54</ele>
        <time>2019-10-28T13:11:56Z</time>
      </trkpt>
      <trkpt lat="49.6558" lon="5.01823">
        <ele>150.58</ele>
        <time>2019-10-28T13:12:17Z</time>
      </trkpt>
      <trkpt lat="49.65563" lon="5.01844">
        <ele>151.06</ele>
        <time>2019-10-28T13:12:36Z</time>
      </trkpt>
      <trkpt lat="49.65558" lon="5.01871">
        <ele>150.1</ele>
        <time>2019-10-28T13:12:53Z</time>
      </trkpt>
      <trkpt lat="49.65555" lon="5.01896">
        <ele>149.62</ele>
        <time>2019-10-28T13:13:08Z</time>
      </trkpt>
      <trkpt lat="49.65551" lon="5.0193">
        <ele>149.14</ele>
        <time>2019-10-28T13:13:28Z</time>
      </trkpt>
      <trkpt lat="49.65545" lon="5.01965">
        <ele>148.18</ele>
        <time>2019-10-28T13:13:48Z</time>
      </trkpt>
      <trkpt lat="49.65539" lon="5.01994">
        <ele>148.66</ele>
        <time>2019-10-28T13:14:06Z</time>
      </trkpt>
      <trkpt lat="49.65532" lon="5.02029">
        <ele>148.18</ele>
        <time>2019-10-28T13:14:28Z</time>
      </trkpt>
      <trkpt lat="49.65527" lon="5.02045">
        <ele>147.7</ele>
        <time>2019-10-28T13:14:38Z</time>
      </trkpt>
      <trkpt lat="49.65523" lon="5.02072">
        <ele>146.26</ele>
        <time>2019-10-28T13:14:53Z</time>
      </trkpt>
      <trkpt lat="49.65518" lon="5.02098">
        <ele>146.74</ele>
        <time>2019-10-28T13:15:09Z</time>
      </trkpt>
      <trkpt lat="49.65509" lon="5.02131">
        <ele>147.7</ele>
        <time>2019-10-28T13:15:29Z</time>
      </trkpt>
      <trkpt lat="49.65504" lon="5.02143">
        <ele>146.74</ele>
        <time>2019-10-28T13:15:37Z</time>
      </trkpt>
      <trkpt lat="49.65497" lon="5.02172">
        <ele>146.26</ele>
        <time>2019-10-28T13:15:55Z</time>
      </trkpt>
      <trkpt lat="49.65487" lon="5.02205">
        <ele>146.26</ele>
        <time>2019-10-28T13:16:15Z</time>
      </trkpt>
      <trkpt lat="49.65476" lon="5.02236">
        <ele>146.26</ele>
        <time>2019-10-28T13:16:34Z</time>
      </trkpt>
      <trkpt lat="49.65467" lon="5.02268">
        <ele>146.26</ele>
        <time>2019-10-28T13:16:54Z</time>
      </trkpt>
      <trkpt lat="49.6546" lon="5.02286">
        <ele>146.74</ele>
        <time>2019-10-28T13:17:06Z</time>
      </trkpt>
      <trkpt lat="49.65449" lon="5.02318">
        <ele>144.82</ele>
        <time>2019-10-28T13:17:27Z</time>
      </trkpt>
      <trkpt lat="49.65438" lon="5.02345">
        <ele>145.78</ele>
        <time>2019-10-28T13:17:47Z</time>
      </trkpt>
      <trkpt lat="49.65427" lon="5.02378">
        <ele>146.74</ele>
        <time>2019-10-28T13:18:08Z</time>
      </trkpt>
      <trkpt lat="49.65415" lon="5.02413">
        <ele>147.22</ele>
        <time>2019-10-28T13:18:30Z</time>
      </trkpt>
      <trkpt lat="49.65405" lon="5.02443">
        <ele>147.7</ele>
        <time>2019-10-28T13:18:49Z</time>
      </trkpt>
      <trkpt lat="49.65396" lon="5.0247">
        <ele>147.7</ele>
        <time>2019-10-28T13:19:07Z</time>
      </trkpt>
      <trkpt lat="49.65387" lon="5.02496">
        <ele>148.18</ele>
        <time>2019-10-28T13:19:25Z</time>
      </trkpt>
      <trkpt lat="49.65384" lon="5.02503">
        <ele>148.66</ele>
        <time>2019-10-28T13:19:30Z</time>
      </trkpt>
      <trkpt lat="49.65384" lon="5.0254">
        <ele>149.14</ele>
        <time>2019-10-28T13:19:51Z</time>
      </trkpt>
      <trkpt lat="49.65383" lon="5.02557">
        <ele>148.66</ele>
        <time>2019-10-28T13:20:01Z</time>
      </trkpt>
      <trkpt lat="49.65383" lon="5.0259">
        <ele>149.14</ele>
        <time>2019-10-28T13:20:20Z</time>
      </trkpt>
      <trkpt lat="49.65381" lon="5.02628">
        <ele>149.14</ele>
        <time>2019-10-28T13:20:41Z</time>
      </trkpt>
      <trkpt lat="49.65377" lon="5.02667">
        <ele>149.62</ele>
        <time>2019-10-28T13:21:04Z</time>
      </trkpt>
      <trkpt lat="49.65374" lon="5.02704">
        <ele>149.62</ele>
        <time>2019-10-28T13:21:26Z</time>
      </trkpt>
      <trkpt lat="49.65373" lon="5.02711">
        <ele>149.62</ele>
        <time>2019-10-28T13:21:30Z</time>
      </trkpt>
      <trkpt lat="49.6537" lon="5.02745">
        <ele>149.14</ele>
        <time>2019-10-28T13:21:50Z</time>
      </trkpt>
      <trkpt lat="49.65367" lon="5.02781">
        <ele>149.62</ele>
        <time>2019-10-28T13:22:11Z</time>
      </trkpt>
      <trkpt lat="49.65363" lon="5.02813">
        <ele>149.62</ele>
        <time>2019-10-28T13:22:30Z</time>
      </trkpt>
      <trkpt lat="49.65359" lon="5.02843">
        <ele>150.1</ele>
        <time>2019-10-28T13:22:48Z</time>
      </trkpt>
      <trkpt lat="49.65355" lon="5.02875">
        <ele>150.58</ele>
        <time>2019-10-28T13:23:07Z</time>
      </trkpt>
      <trkpt lat="49.65351" lon="5.02907">
        <ele>151.06</ele>
        <time>2019-10-28T13:23:26Z</time>
      </trkpt>
      <trkpt lat="49.65346" lon="5.02938">
        <ele>151.54</ele>
        <time>2019-10-28T13:23:45Z</time>
      </trkpt>
      <trkpt lat="49.65341" lon="5.02968">
        <ele>151.54</ele>
        <time>2019-10-28T13:24:02Z</time>
      </trkpt>
      <trkpt lat="49.65334" lon="5.02996">
        <ele>151.06</ele>
        <time>2019-10-28T13:24:20Z</time>
      </trkpt>
      <trkpt lat="49.65321" lon="5.03015">
        <ele>151.06</ele>
        <time>2019-10-28T13:24:36Z</time>
      </trkpt>
      <trkpt lat="49.65302" lon="5.03034">
        <ele>150.58</ele>
        <time>2019-10-28T13:24:56Z</time>
      </trkpt>
      <trkpt lat="49.65282" lon="5.03051">
        <ele>150.58</ele>
        <time>2019-10-28T13:25:17Z</time>
      </trkpt>
      <trkpt lat="49.65268" lon="5.03066">
        <ele>151.06</ele>
        <time>2019-10-28T13:25:33Z</time>
      </trkpt>
      <trkpt lat="49.65253" lon="5.03089">
        <ele>151.06</ele>
        <time>2019-10-28T13:25:52Z</time>
      </trkpt>
      <trkpt lat="49.65246" lon="5.03104">
        <ele>151.06</ele>
        <time>2019-10-28T13:26:04Z</time>
      </trkpt>
      <trkpt lat="49.65241" lon="5.03142">
        <ele>151.06</ele>
        <time>2019-10-28T13:26:27Z</time>
      </trkpt>
      <trkpt lat="49.6524" lon="5.0316">
        <ele>150.58</ele>
        <time>2019-10-28T13:26:38Z</time>
      </trkpt>
      <trkpt lat="49.6524" lon="5.03164">
        <ele>150.58</ele>
        <time>2019-10-28T13:26:40Z</time>
      </trkpt>
      <trkpt lat="49.65238" lon="5.03183">
        <ele>151.06</ele>
        <time>2019-10-28T13:26:51Z</time>
      </trkpt>
      <trkpt lat="49.65234" lon="5.03216">
        <ele>151.54</ele>
        <time>2019-10-28T13:27:11Z</time>
      </trkpt>
      <trkpt lat="49.65229" lon="5.03244">
        <ele>151.06</ele>
        <time>2019-10-28T13:27:28Z</time>
      </trkpt>
      <trkpt lat="49.65226" lon="5.03276">
        <ele>151.54</ele>
        <time>2019-10-28T13:27:47Z</time>
      </trkpt>
      <trkpt lat="49.65221" lon="5.03305">
        <ele>151.54</ele>
        <time>2019-10-28T13:28:05Z</time>
      </trkpt>
      <trkpt lat="49.65214" lon="5.03336">
        <ele>150.58</ele>
        <time>2019-10-28T13:28:25Z</time>
      </trkpt>
      <trkpt lat="49.65211" lon="5.0336">
        <ele>150.1</ele>
        <time>2019-10-28T13:28:40Z</time>
      </trkpt>
      <trkpt lat="49.6521" lon="5.03367">
        <ele>150.1</ele>
        <time>2019-10-28T13:28:44Z</time>
      </trkpt>
      <trkpt lat="49.65208" lon="5.034">
        <ele>149.62</ele>
        <time>2019-10-28T13:29:04Z</time>
      </trkpt>
      <trkpt lat="49.65202" lon="5.03429">
        <ele>149.62</ele>
        <time>2019-10-28T13:29:22Z</time>
      </trkpt>
      <trkpt lat="49.65197" lon="5.03461">
        <ele>150.1</ele>
        <time>2019-10-28T13:29:42Z</time>
      </trkpt>
      <trkpt lat="49.65193" lon="5.03489">
        <ele>150.1</ele>
        <time>2019-10-28T13:29:59Z</time>
      </trkpt>
      <trkpt lat="49.65187" lon="5.03521">
        <ele>150.1</ele>
        <time>2019-10-28T13:30:18Z</time>
      </trkpt>
      <trkpt lat="49.65181" lon="5.03556">
        <ele>150.58</ele>
        <time>2019-10-28T13:30:39Z</time>
      </trkpt>
      <trkpt lat="49.65176" lon="5.03588">
        <ele>150.1</ele>
        <time>2019-10-28T13:30:59Z</time>
      </trkpt>
      <trkpt lat="49.65176" lon="5.03601">
        <ele>151.06</ele>
        <time>2019-10-28T13:31:07Z</time>
      </trkpt>
      <trkpt lat="49.65173" lon="5.03609">
        <ele>150.58</ele>
        <time>2019-10-28T13:31:21Z</time>
      </trkpt>
      <trkpt lat="49.65169" lon="5.03638">
        <ele>151.06</ele>
        <time>2019-10-28T13:31:38Z</time>
      </trkpt>
      <trkpt lat="49.65162" lon="5.0367">
        <ele>151.06</ele>
        <time>2019-10-28T13:31:58Z</time>
      </trkpt>
      <trkpt lat="49.65157" lon="5.03692">
        <ele>150.1</ele>
        <time>2019-10-28T13:32:16Z</time>
      </trkpt>
      <trkpt lat="49.65152" lon="5.03728">
        <ele>150.1</ele>
        <time>2019-10-28T13:32:38Z</time>
      </trkpt>
      <trkpt lat="49.65146" lon="5.03759">
        <ele>149.62</ele>
        <time>2019-10-28T13:32:57Z</time>
      </trkpt>
      <trkpt lat="49.65141" lon="5.03786">
        <ele>149.14</ele>
        <time>2019-10-28T13:33:14Z</time>
      </trkpt>
      <trkpt lat="49.65137" lon="5.03816">
        <ele>149.14</ele>
        <time>2019-10-28T13:33:33Z</time>
      </trkpt>
      <trkpt lat="49.65132" lon="5.03845">
        <ele>150.58</ele>
        <time>2019-10-28T13:33:51Z</time>
      </trkpt>
      <trkpt lat="49.65127" lon="5.03879">
        <ele>150.1</ele>
        <time>2019-10-28T13:34:12Z</time>
      </trkpt>
      <trkpt lat="49.65124" lon="5.03901">
        <ele>150.1</ele>
        <time>2019-10-28T13:34:25Z</time>
      </trkpt>
      <trkpt lat="49.65117" lon="5.03931">
        <ele>150.58</ele>
        <time>2019-10-28T13:34:44Z</time>
      </trkpt>
      <trkpt lat="49.65111" lon="5.03958">
        <ele>150.1</ele>
        <time>2019-10-28T13:35:01Z</time>
      </trkpt>
      <trkpt lat="49.65104" lon="5.03987">
        <ele>150.1</ele>
        <time>2019-10-28T13:35:20Z</time>
      </trkpt>
      <trkpt lat="49.65096" lon="5.04018">
        <ele>150.58</ele>
        <time>2019-10-28T13:35:40Z</time>
      </trkpt>
      <trkpt lat="49.65087" lon="5.04042">
        <ele>151.54</ele>
        <time>2019-10-28T13:35:56Z</time>
      </trkpt>
      <trkpt lat="49.65073" lon="5.04067">
        <ele>153.95</ele>
        <time>2019-10-28T13:36:16Z</time>
      </trkpt>
      <trkpt lat="49.65066" lon="5.04098">
        <ele>152.03</ele>
        <time>2019-10-28T13:36:36Z</time>
      </trkpt>
      <trkpt lat="49.65065" lon="5.04106">
        <ele>152.03</ele>
        <time>2019-10-28T13:36:42Z</time>
      </trkpt>
      <trkpt lat="49.65058" lon="5.04133">
        <ele>152.03</ele>
        <time>2019-10-28T13:36:59Z</time>
      </trkpt>
      <trkpt lat="49.65052" lon="5.04163">
        <ele>151.54</ele>
        <time>2019-10-28T13:37:18Z</time>
      </trkpt>
      <trkpt lat="49.65047" lon="5.04192">
        <ele>151.54</ele>
        <time>2019-10-28T13:37:36Z</time>
      </trkpt>
      <trkpt lat="49.65046" lon="5.04196">
        <ele>152.03</ele>
        <time>2019-10-28T13:37:39Z</time>
      </trkpt>
      <trkpt lat="49.65045" lon="5.04203">
        <ele>152.03</ele>
        <time>2019-10-28T13:37:43Z</time>
      </trkpt>
      <trkpt lat="49.6504" lon="5.04227">
        <ele>152.51</ele>
        <time>2019-10-28T13:37:59Z</time>
      </trkpt>
      <trkpt lat="49.65035" lon="5.0425">
        <ele>152.51</ele>
        <time>2019-10-28T13:38:14Z</time>
      </trkpt>
      <trkpt lat="49.65032" lon="5.04276">
        <ele>152.99</ele>
        <time>2019-10-28T13:38:30Z</time>
      </trkpt>
      <trkpt lat="49.65032" lon="5.04287">
        <ele>152.99</ele>
        <time>2019-10-28T13:38:37Z</time>
      </trkpt>
      <trkpt lat="49.65029" lon="5.04318">
        <ele>152.99</ele>
        <time>2019-10-28T13:38:56Z</time>
      </trkpt>
      <trkpt lat="49.65027" lon="5.04343">
        <ele>153.95</ele>
        <time>2019-10-28T13:39:11Z</time>
      </trkpt>
      <trkpt lat="49.65023" lon="5.04376">
        <ele>152.99</ele>
        <time>2019-10-28T13:39:31Z</time>
      </trkpt>
      <trkpt lat="49.65021" lon="5.04406">
        <ele>153.47</ele>
        <time>2019-10-28T13:39:50Z</time>
      </trkpt>
      <trkpt lat="49.6502" lon="5.04427">
        <ele>153.95</ele>
        <time>2019-10-28T13:40:03Z</time>
      </trkpt>
      <trkpt lat="49.65017" lon="5.04446">
        <ele>154.91</ele>
        <time>2019-10-28T13:40:15Z</time>
      </trkpt>
      <trkpt lat="49.65013" lon="5.04476">
        <ele>155.87</ele>
        <time>2019-10-28T13:40:32Z</time>
      </trkpt>
      <trkpt lat="49.65008" lon="5.04506">
        <ele>157.79</ele>
        <time>2019-10-28T13:40:50Z</time>
      </trkpt>
      <trkpt lat="49.65002" lon="5.04538">
        <ele>157.79</ele>
        <time>2019-10-28T13:41:09Z</time>
      </trkpt>
      <trkpt lat="49.64998" lon="5.04565">
        <ele>159.72</ele>
        <time>2019-10-28T13:41:26Z</time>
      </trkpt>
      <trkpt lat="49.64996" lon="5.0457">
        <ele>160.2</ele>
        <time>2019-10-28T13:41:38Z</time>
      </trkpt>
      <trkpt lat="49.64987" lon="5.04592">
        <ele>161.64</ele>
        <time>2019-10-28T13:41:57Z</time>
      </trkpt>
      <trkpt lat="49.64985" lon="5.04593">
        <ele>162.6</ele>
        <time>2019-10-28T13:42:13Z</time>
      </trkpt>
      <trkpt lat="49.64984" lon="5.04593">
        <ele>164.04</ele>
        <time>2019-10-28T13:42:29Z</time>
      </trkpt>
      <trkpt lat="49.64984" lon="5.04594">
        <ele>164.52</ele>
        <time>2019-10-28T13:42:41Z</time>
      </trkpt>
      <trkpt lat="49.64984" lon="5.04595">
        <ele>165</ele>
        <time>2019-10-28T13:43:10Z</time>
      </trkpt>
      <trkpt lat="49.64984" lon="5.04596">
        <ele>164.04</ele>
        <time>2019-10-28T13:43:56Z</time>
      </trkpt>
      <trkpt lat="49.64984" lon="5.04595">
        <ele>164.04</ele>
        <time>2019-10-28T13:44:37Z</time>
      </trkpt>
      <trkpt lat="49.64985" lon="5.04595">
        <ele>163.56</ele>
        <time>2019-10-28T13:45:24Z</time>
      </trkpt>
      <trkpt lat="49.64985" lon="5.04595">
        <ele>164.04</ele>
        <time>2019-10-28T13:46:12Z</time>
      </trkpt>
      <trkpt lat="49.64986" lon="5.04594">
        <ele>162.6</ele>
        <time>2019-10-28T13:46:53Z</time>
      </trkpt>
      <trkpt lat="49.64985" lon="5.04595">
        <ele>162.6</ele>
        <time>2019-10-28T13:47:48Z</time>
      </trkpt>
      <trkpt lat="49.64985" lon="5.04594">
        <ele>164.04</ele>
        <time>2019-10-28T13:48:43Z</time>
      </trkpt>
      <trkpt lat="49.64986" lon="5.04595">
        <ele>163.56</ele>
        <time>2019-10-28T13:49:24Z</time>
      </trkpt>
      <trkpt lat="49.64985" lon="5.04595">
        <ele>163.56</ele>
        <time>2019-10-28T13:50:02Z</time>
      </trkpt>
      <trkpt lat="49.64985" lon="5.04594">
        <ele>163.56</ele>
        <time>2019-10-28T13:50:19Z</time>
      </trkpt>
      <trkpt lat="49.64986" lon="5.04594">
        <ele>164.52</ele>
        <time>2019-10-28T13:50:25Z</time>
      </trkpt>
      <trkpt lat="49.64985" lon="5.04594">
        <ele>164.52</ele>
        <time>2019-10-28T13:50:39Z</time>
      </trkpt>
      <trkpt lat="49.64985" lon="5.04594">
        <ele>164.52</ele>
        <time>2019-10-28T13:50:52Z</time>
      </trkpt>
      <trkpt lat="49.64984" lon="5.04594">
        <ele>164.52</ele>
        <time>2019-10-28T13:51:11Z</time>
      </trkpt>
      <trkpt lat="49.64983" lon="5.04595">
        <ele>164.52</ele>
        <time>2019-10-28T13:51:36Z</time>
      </trkpt>
      <trkpt lat="49.64983" lon="5.04594">
        <ele>164.52</ele>
        <time>2019-10-28T13:51:52Z</time>
      </trkpt>
      <trkpt lat="49.64983" lon="5.04593">
        <ele>164.52</ele>
        <time>2019-10-28T13:52:10Z</time>
      </trkpt>
      <trkpt lat="49.64984" lon="5.04593">
        <ele>164.04</ele>
        <time>2019-10-28T13:52:35Z</time>
      </trkpt>
      <trkpt lat="49.64984" lon="5.04594">
        <ele>163.56</ele>
        <time>2019-10-28T13:52:52Z</time>
      </trkpt>
      <trkpt lat="49.64984" lon="5.04594">
        <ele>163.56</ele>
        <time>2019-10-28T13:53:07Z</time>
      </trkpt>
      <trkpt lat="49.64986" lon="5.04583">
        <ele>163.08</ele>
        <time>2019-10-28T13:53:26Z</time>
      </trkpt>
      <trkpt lat="49.64987" lon="5.04572">
        <ele>162.12</ele>
        <time>2019-10-28T13:53:41Z</time>
      </trkpt>
      <trkpt lat="49.64988" lon="5.04567">
        <ele>161.64</ele>
        <time>2019-10-28T13:53:49Z</time>
      </trkpt>
      <trkpt lat="49.64995" lon="5.0453">
        <ele>159.24</ele>
        <time>2019-10-28T13:54:10Z</time>
      </trkpt>
      <trkpt lat="49.65002" lon="5.04499">
        <ele>159.24</ele>
        <time>2019-10-28T13:54:29Z</time>
      </trkpt>
      <trkpt lat="49.65005" lon="5.04468">
        <ele>156.83</ele>
        <time>2019-10-28T13:54:47Z</time>
      </trkpt>
      <trkpt lat="49.65012" lon="5.04432">
        <ele>157.79</ele>
        <time>2019-10-28T13:55:08Z</time>
      </trkpt>
      <trkpt lat="49.65014" lon="5.04402">
        <ele>156.83</ele>
        <time>2019-10-28T13:55:26Z</time>
      </trkpt>
      <trkpt lat="49.65016" lon="5.0439">
        <ele>157.31</ele>
        <time>2019-10-28T13:55:34Z</time>
      </trkpt>
      <trkpt lat="49.65021" lon="5.04356">
        <ele>154.43</ele>
        <time>2019-10-28T13:55:55Z</time>
      </trkpt>
      <trkpt lat="49.65025" lon="5.04319">
        <ele>151.06</ele>
        <time>2019-10-28T13:56:17Z</time>
      </trkpt>
      <trkpt lat="49.65028" lon="5.04282">
        <ele>150.1</ele>
        <time>2019-10-28T13:56:38Z</time>
      </trkpt>
      <trkpt lat="49.65031" lon="5.04248">
        <ele>149.14</ele>
        <time>2019-10-28T13:56:58Z</time>
      </trkpt>
      <trkpt lat="49.65037" lon="5.04221">
        <ele>148.66</ele>
        <time>2019-10-28T13:57:15Z</time>
      </trkpt>
      <trkpt lat="49.65041" lon="5.04196">
        <ele>148.18</ele>
        <time>2019-10-28T13:57:30Z</time>
      </trkpt>
      <trkpt lat="49.65048" lon="5.04166">
        <ele>148.66</ele>
        <time>2019-10-28T13:57:48Z</time>
      </trkpt>
      <trkpt lat="49.65055" lon="5.04135">
        <ele>148.18</ele>
        <time>2019-10-28T13:58:07Z</time>
      </trkpt>
      <trkpt lat="49.65062" lon="5.04104">
        <ele>147.7</ele>
        <time>2019-10-28T13:58:26Z</time>
      </trkpt>
      <trkpt lat="49.65069" lon="5.04074">
        <ele>147.7</ele>
        <time>2019-10-28T13:58:44Z</time>
      </trkpt>
      <trkpt lat="49.6507" lon="5.04063">
        <ele>148.18</ele>
        <time>2019-10-28T13:58:51Z</time>
      </trkpt>
      <trkpt lat="49.65084" lon="5.04042">
        <ele>149.14</ele>
        <time>2019-10-28T13:59:09Z</time>
      </trkpt>
      <trkpt lat="49.65095" lon="5.04014">
        <ele>149.62</ele>
        <time>2019-10-28T13:59:28Z</time>
      </trkpt>
      <trkpt lat="49.65103" lon="5.03983">
        <ele>149.14</ele>
        <time>2019-10-28T13:59:47Z</time>
      </trkpt>
      <trkpt lat="49.6511" lon="5.03953">
        <ele>149.14</ele>
        <time>2019-10-28T14:00:06Z</time>
      </trkpt>
      <trkpt lat="49.65118" lon="5.0392">
        <ele>148.66</ele>
        <time>2019-10-28T14:00:26Z</time>
      </trkpt>
      <trkpt lat="49.65124" lon="5.03889">
        <ele>148.66</ele>
        <time>2019-10-28T14:00:45Z</time>
      </trkpt>
      <trkpt lat="49.65125" lon="5.03876">
        <ele>147.22</ele>
        <time>2019-10-28T14:00:52Z</time>
      </trkpt>
      <trkpt lat="49.65129" lon="5.03846">
        <ele>147.22</ele>
        <time>2019-10-28T14:01:10Z</time>
      </trkpt>
      <trkpt lat="49.65132" lon="5.03816">
        <ele>146.74</ele>
        <time>2019-10-28T14:01:28Z</time>
      </trkpt>
      <trkpt lat="49.65138" lon="5.03787">
        <ele>146.26</ele>
        <time>2019-10-28T14:01:46Z</time>
      </trkpt>
      <trkpt lat="49.65145" lon="5.03752">
        <ele>146.26</ele>
        <time>2019-10-28T14:02:07Z</time>
      </trkpt>
      <trkpt lat="49.65149" lon="5.03721">
        <ele>147.22</ele>
        <time>2019-10-28T14:02:25Z</time>
      </trkpt>
      <trkpt lat="49.65155" lon="5.03687">
        <ele>146.26</ele>
        <time>2019-10-28T14:02:46Z</time>
      </trkpt>
      <trkpt lat="49.6516" lon="5.03664">
        <ele>146.74</ele>
        <time>2019-10-28T14:03:02Z</time>
      </trkpt>
      <trkpt lat="49.65162" lon="5.03648">
        <ele>147.7</ele>
        <time>2019-10-28T14:03:12Z</time>
      </trkpt>
      <trkpt lat="49.65168" lon="5.03612">
        <ele>146.74</ele>
        <time>2019-10-28T14:03:33Z</time>
      </trkpt>
      <trkpt lat="49.65176" lon="5.03582">
        <ele>148.18</ele>
        <time>2019-10-28T14:03:51Z</time>
      </trkpt>
      <trkpt lat="49.6518" lon="5.03551">
        <ele>148.66</ele>
        <time>2019-10-28T14:04:10Z</time>
      </trkpt>
      <trkpt lat="49.65185" lon="5.03523">
        <ele>149.62</ele>
        <time>2019-10-28T14:04:27Z</time>
      </trkpt>
      <trkpt lat="49.6519" lon="5.03489">
        <ele>149.14</ele>
        <time>2019-10-28T14:04:47Z</time>
      </trkpt>
      <trkpt lat="49.65195" lon="5.03464">
        <ele>149.14</ele>
        <time>2019-10-28T14:05:04Z</time>
      </trkpt>
      <trkpt lat="49.65198" lon="5.03434">
        <ele>148.66</ele>
        <time>2019-10-28T14:05:21Z</time>
      </trkpt>
      <trkpt lat="49.65199" lon="5.03426">
        <ele>148.66</ele>
        <time>2019-10-28T14:05:27Z</time>
      </trkpt>
      <trkpt lat="49.65204" lon="5.03391">
        <ele>148.66</ele>
        <time>2019-10-28T14:05:47Z</time>
      </trkpt>
      <trkpt lat="49.65208" lon="5.03361">
        <ele>149.14</ele>
        <time>2019-10-28T14:06:05Z</time>
      </trkpt>
      <trkpt lat="49.65213" lon="5.03331">
        <ele>148.66</ele>
        <time>2019-10-28T14:06:24Z</time>
      </trkpt>
      <trkpt lat="49.65219" lon="5.03294">
        <ele>146.74</ele>
        <time>2019-10-28T14:06:46Z</time>
      </trkpt>
      <trkpt lat="49.65224" lon="5.03262">
        <ele>146.26</ele>
        <time>2019-10-28T14:07:05Z</time>
      </trkpt>
      <trkpt lat="49.65228" lon="5.03234">
        <ele>146.74</ele>
        <time>2019-10-28T14:07:23Z</time>
      </trkpt>
      <trkpt lat="49.65232" lon="5.03205">
        <ele>146.26</ele>
        <time>2019-10-28T14:07:40Z</time>
      </trkpt>
      <trkpt lat="49.65236" lon="5.03172">
        <ele>145.78</ele>
        <time>2019-10-28T14:08:00Z</time>
      </trkpt>
      <trkpt lat="49.65238" lon="5.03152">
        <ele>145.78</ele>
        <time>2019-10-28T14:08:12Z</time>
      </trkpt>
      <trkpt lat="49.65237" lon="5.03143">
        <ele>145.3</ele>
        <time>2019-10-28T14:08:17Z</time>
      </trkpt>
      <trkpt lat="49.65244" lon="5.0311">
        <ele>144.34</ele>
        <time>2019-10-28T14:08:38Z</time>
      </trkpt>
      <trkpt lat="49.65244" lon="5.03096">
        <ele>144.34</ele>
        <time>2019-10-28T14:08:46Z</time>
      </trkpt>
      <trkpt lat="49.6525" lon="5.0309">
        <ele>146.26</ele>
        <time>2019-10-28T14:08:52Z</time>
      </trkpt>
      <trkpt lat="49.65263" lon="5.03068">
        <ele>146.74</ele>
        <time>2019-10-28T14:09:10Z</time>
      </trkpt>
      <trkpt lat="49.65283" lon="5.0305">
        <ele>147.22</ele>
        <time>2019-10-28T14:09:30Z</time>
      </trkpt>
      <trkpt lat="49.65301" lon="5.03033">
        <ele>148.66</ele>
        <time>2019-10-28T14:09:49Z</time>
      </trkpt>
      <trkpt lat="49.65318" lon="5.03017">
        <ele>148.18</ele>
        <time>2019-10-28T14:10:07Z</time>
      </trkpt>
      <trkpt lat="49.65333" lon="5.02995">
        <ele>148.66</ele>
        <time>2019-10-28T14:10:26Z</time>
      </trkpt>
      <trkpt lat="49.6534" lon="5.02966">
        <ele>147.7</ele>
        <time>2019-10-28T14:10:43Z</time>
      </trkpt>
      <trkpt lat="49.65345" lon="5.02934">
        <ele>148.66</ele>
        <time>2019-10-28T14:11:03Z</time>
      </trkpt>
      <trkpt lat="49.6535" lon="5.02907">
        <ele>148.18</ele>
        <time>2019-10-28T14:11:19Z</time>
      </trkpt>
      <trkpt lat="49.65354" lon="5.02873">
        <ele>148.18</ele>
        <time>2019-10-28T14:11:39Z</time>
      </trkpt>
      <trkpt lat="49.65359" lon="5.0284">
        <ele>147.7</ele>
        <time>2019-10-28T14:11:59Z</time>
      </trkpt>
      <trkpt lat="49.65362" lon="5.0281">
        <ele>147.7</ele>
        <time>2019-10-28T14:12:16Z</time>
      </trkpt>
      <trkpt lat="49.65366" lon="5.02771">
        <ele>149.14</ele>
        <time>2019-10-28T14:12:38Z</time>
      </trkpt>
      <trkpt lat="49.65369" lon="5.02732">
        <ele>148.66</ele>
        <time>2019-10-28T14:13:00Z</time>
      </trkpt>
      <trkpt lat="49.65373" lon="5.02694">
        <ele>147.22</ele>
        <time>2019-10-28T14:13:22Z</time>
      </trkpt>
      <trkpt lat="49.65375" lon="5.0266">
        <ele>147.7</ele>
        <time>2019-10-28T14:13:42Z</time>
      </trkpt>
      <trkpt lat="49.65377" lon="5.02627">
        <ele>145.78</ele>
        <time>2019-10-28T14:14:01Z</time>
      </trkpt>
      <trkpt lat="49.65379" lon="5.02591">
        <ele>146.26</ele>
        <time>2019-10-28T14:14:21Z</time>
      </trkpt>
      <trkpt lat="49.65381" lon="5.02557">
        <ele>145.78</ele>
        <time>2019-10-28T14:14:41Z</time>
      </trkpt>
      <trkpt lat="49.65384" lon="5.02521">
        <ele>145.3</ele>
        <time>2019-10-28T14:15:01Z</time>
      </trkpt>
      <trkpt lat="49.65386" lon="5.02488">
        <ele>146.26</ele>
        <time>2019-10-28T14:15:20Z</time>
      </trkpt>
      <trkpt lat="49.65396" lon="5.02462">
        <ele>146.74</ele>
        <time>2019-10-28T14:15:38Z</time>
      </trkpt>
      <trkpt lat="49.65401" lon="5.02449">
        <ele>146.26</ele>
        <time>2019-10-28T14:15:51Z</time>
      </trkpt>
      <trkpt lat="49.65411" lon="5.02418">
        <ele>144.82</ele>
        <time>2019-10-28T14:16:11Z</time>
      </trkpt>
      <trkpt lat="49.65419" lon="5.02391">
        <ele>144.34</ele>
        <time>2019-10-28T14:16:28Z</time>
      </trkpt>
      <trkpt lat="49.6543" lon="5.02359">
        <ele>142.41</ele>
        <time>2019-10-28T14:16:50Z</time>
      </trkpt>
      <trkpt lat="49.65441" lon="5.02328">
        <ele>143.37</ele>
        <time>2019-10-28T14:17:10Z</time>
      </trkpt>
      <trkpt lat="49.65453" lon="5.02297">
        <ele>143.37</ele>
        <time>2019-10-28T14:17:29Z</time>
      </trkpt>
      <trkpt lat="49.65464" lon="5.02264">
        <ele>142.41</ele>
        <time>2019-10-28T14:17:50Z</time>
      </trkpt>
      <trkpt lat="49.65475" lon="5.02231">
        <ele>142.41</ele>
        <time>2019-10-28T14:18:11Z</time>
      </trkpt>
      <trkpt lat="49.65482" lon="5.02208">
        <ele>141.45</ele>
        <time>2019-10-28T14:18:28Z</time>
      </trkpt>
      <trkpt lat="49.65492" lon="5.02174">
        <ele>140.49</ele>
        <time>2019-10-28T14:18:50Z</time>
      </trkpt>
      <trkpt lat="49.65502" lon="5.02141">
        <ele>141.93</ele>
        <time>2019-10-28T14:19:12Z</time>
      </trkpt>
      <trkpt lat="49.65503" lon="5.02139">
        <ele>141.93</ele>
        <time>2019-10-28T14:19:13Z</time>
      </trkpt>
      <trkpt lat="49.65511" lon="5.02105">
        <ele>141.45</ele>
        <time>2019-10-28T14:19:35Z</time>
      </trkpt>
      <trkpt lat="49.65519" lon="5.02072">
        <ele>140.01</ele>
        <time>2019-10-28T14:19:55Z</time>
      </trkpt>
      <trkpt lat="49.65524" lon="5.02044">
        <ele>141.45</ele>
        <time>2019-10-28T14:20:13Z</time>
      </trkpt>
      <trkpt lat="49.65533" lon="5.02011">
        <ele>142.89</ele>
        <time>2019-10-28T14:20:33Z</time>
      </trkpt>
      <trkpt lat="49.65539" lon="5.01979">
        <ele>142.41</ele>
        <time>2019-10-28T14:20:54Z</time>
      </trkpt>
      <trkpt lat="49.65545" lon="5.01945">
        <ele>143.37</ele>
        <time>2019-10-28T14:21:15Z</time>
      </trkpt>
      <trkpt lat="49.65552" lon="5.01905">
        <ele>142.41</ele>
        <time>2019-10-28T14:21:39Z</time>
      </trkpt>
      <trkpt lat="49.65555" lon="5.01868">
        <ele>141.45</ele>
        <time>2019-10-28T14:22:01Z</time>
      </trkpt>
      <trkpt lat="49.65555" lon="5.01857">
        <ele>142.41</ele>
        <time>2019-10-28T14:22:07Z</time>
      </trkpt>
      <trkpt lat="49.65558" lon="5.01847">
        <ele>143.85</ele>
        <time>2019-10-28T14:22:16Z</time>
      </trkpt>
      <trkpt lat="49.6557" lon="5.01825">
        <ele>144.34</ele>
        <time>2019-10-28T14:22:33Z</time>
      </trkpt>
      <trkpt lat="49.65593" lon="5.01803">
        <ele>146.26</ele>
        <time>2019-10-28T14:22:58Z</time>
      </trkpt>
      <trkpt lat="49.65614" lon="5.01787">
        <ele>148.66</ele>
        <time>2019-10-28T14:23:18Z</time>
      </trkpt>
      <trkpt lat="49.65634" lon="5.01772">
        <ele>150.58</ele>
        <time>2019-10-28T14:23:38Z</time>
      </trkpt>
      <trkpt lat="49.65652" lon="5.01754">
        <ele>151.06</ele>
        <time>2019-10-28T14:23:57Z</time>
      </trkpt>
      <trkpt lat="49.6567" lon="5.01738">
        <ele>151.06</ele>
        <time>2019-10-28T14:24:17Z</time>
      </trkpt>
      <trkpt lat="49.65688" lon="5.01721">
        <ele>149.62</ele>
        <time>2019-10-28T14:24:37Z</time>
      </trkpt>
      <trkpt lat="49.65706" lon="5.01707">
        <ele>149.62</ele>
        <time>2019-10-28T14:24:56Z</time>
      </trkpt>
      <trkpt lat="49.65728" lon="5.01691">
        <ele>149.62</ele>
        <time>2019-10-28T14:25:18Z</time>
      </trkpt>
      <trkpt lat="49.65748" lon="5.01674">
        <ele>150.1</ele>
        <time>2019-10-28T14:25:39Z</time>
      </trkpt>
      <trkpt lat="49.65771" lon="5.01655">
        <ele>149.14</ele>
        <time>2019-10-28T14:26:02Z</time>
      </trkpt>
      <trkpt lat="49.65773" lon="5.01635">
        <ele>146.26</ele>
        <time>2019-10-28T14:26:15Z</time>
      </trkpt>
      <trkpt lat="49.65759" lon="5.01604">
        <ele>144.34</ele>
        <time>2019-10-28T14:26:35Z</time>
      </trkpt>
      <trkpt lat="49.65747" lon="5.01574">
        <ele>144.82</ele>
        <time>2019-10-28T14:26:56Z</time>
      </trkpt>
      <trkpt lat="49.65737" lon="5.01546">
        <ele>145.3</ele>
        <time>2019-10-28T14:27:15Z</time>
      </trkpt>
      <trkpt lat="49.65728" lon="5.01512">
        <ele>142.89</ele>
        <time>2019-10-28T14:27:38Z</time>
      </trkpt>
      <trkpt lat="49.65721" lon="5.01478">
        <ele>142.41</ele>
        <time>2019-10-28T14:28:00Z</time>
      </trkpt>
      <trkpt lat="49.65716" lon="5.01446">
        <ele>140.49</ele>
        <time>2019-10-28T14:28:19Z</time>
      </trkpt>
      <trkpt lat="49.65716" lon="5.01444">
        <ele>140.49</ele>
        <time>2019-10-28T14:28:20Z</time>
      </trkpt>
      <trkpt lat="49.6571" lon="5.01433">
        <ele>138.57</ele>
        <time>2019-10-28T14:28:37Z</time>
      </trkpt>
      <trkpt lat="49.65709" lon="5.01432">
        <ele>143.37</ele>
        <time>2019-10-28T14:28:54Z</time>
      </trkpt>
      <trkpt lat="49.65709" lon="5.01432">
        <ele>144.34</ele>
        <time>2019-10-28T14:29:07Z</time>
      </trkpt>
      <trkpt lat="49.65709" lon="5.01433">
        <ele>144.82</ele>
        <time>2019-10-28T14:29:20Z</time>
      </trkpt>
      <trkpt lat="49.65708" lon="5.01434">
        <ele>144.34</ele>
        <time>2019-10-28T14:29:45Z</time>
      </trkpt>
      <trkpt lat="49.65708" lon="5.01435">
        <ele>144.34</ele>
        <time>2019-10-28T14:30:10Z</time>
      </trkpt>
      <trkpt lat="49.65708" lon="5.01435">
        <ele>144.34</ele>
        <time>2019-10-28T14:30:36Z</time>
      </trkpt>
      <trkpt lat="49.65708" lon="5.01434">
        <ele>143.85</ele>
        <time>2019-10-28T14:30:49Z</time>
      </trkpt>
      <trkpt lat="49.65708" lon="5.01431">
        <ele>143.85</ele>
        <time>2019-10-28T14:31:09Z</time>
      </trkpt>
      <trkpt lat="49.65707" lon="5.0141">
        <ele>142.89</ele>
        <time>2019-10-28T14:31:22Z</time>
      </trkpt>
      <trkpt lat="49.65704" lon="5.01378">
        <ele>143.37</ele>
        <time>2019-10-28T14:31:41Z</time>
      </trkpt>
      <trkpt lat="49.657" lon="5.01337">
        <ele>140.97</ele>
        <time>2019-10-28T14:32:03Z</time>
      </trkpt>
      <trkpt lat="49.65697" lon="5.01299">
        <ele>140.49</ele>
        <time>2019-10-28T14:32:26Z</time>
      </trkpt>
      <trkpt lat="49.65694" lon="5.01261">
        <ele>140.97</ele>
        <time>2019-10-28T14:32:49Z</time>
      </trkpt>
      <trkpt lat="49.65692" lon="5.01225">
        <ele>140.49</ele>
        <time>2019-10-28T14:33:11Z</time>
      </trkpt>
      <trkpt lat="49.6569" lon="5.01189">
        <ele>138.09</ele>
        <time>2019-10-28T14:33:32Z</time>
      </trkpt>
      <trkpt lat="49.65686" lon="5.01152">
        <ele>137.61</ele>
        <time>2019-10-28T14:33:54Z</time>
      </trkpt>
      <trkpt lat="49.65684" lon="5.01124">
        <ele>134.72</ele>
        <time>2019-10-28T14:34:11Z</time>
      </trkpt>
      <trkpt lat="49.65681" lon="5.0109">
        <ele>133.28</ele>
        <time>2019-10-28T14:34:31Z</time>
      </trkpt>
      <trkpt lat="49.65678" lon="5.01053">
        <ele>131.36</ele>
        <time>2019-10-28T14:34:53Z</time>
      </trkpt>
      <trkpt lat="49.65675" lon="5.01017">
        <ele>131.36</ele>
        <time>2019-10-28T14:35:15Z</time>
      </trkpt>
      <trkpt lat="49.65673" lon="5.00982">
        <ele>131.36</ele>
        <time>2019-10-28T14:35:36Z</time>
      </trkpt>
      <trkpt lat="49.65669" lon="5.00944">
        <ele>133.28</ele>
        <time>2019-10-28T14:35:58Z</time>
      </trkpt>
      <trkpt lat="49.65666" lon="5.00911">
        <ele>135.2</ele>
        <time>2019-10-28T14:36:18Z</time>
      </trkpt>
      <trkpt lat="49.65662" lon="5.00873">
        <ele>135.68</ele>
        <time>2019-10-28T14:36:41Z</time>
      </trkpt>
      <trkpt lat="49.65656" lon="5.00836">
        <ele>134.24</ele>
        <time>2019-10-28T14:37:04Z</time>
      </trkpt>
      <trkpt lat="49.65651" lon="5.00801">
        <ele>136.16</ele>
        <time>2019-10-28T14:37:25Z</time>
      </trkpt>
      <trkpt lat="49.65647" lon="5.00767">
        <ele>139.53</ele>
        <time>2019-10-28T14:37:46Z</time>
      </trkpt>
      <trkpt lat="49.65643" lon="5.00734">
        <ele>138.57</ele>
        <time>2019-10-28T14:38:07Z</time>
      </trkpt>
      <trkpt lat="49.65639" lon="5.007">
        <ele>139.05</ele>
        <time>2019-10-28T14:38:28Z</time>
      </trkpt>
      <trkpt lat="49.65636" lon="5.00665">
        <ele>140.01</ele>
        <time>2019-10-28T14:38:49Z</time>
      </trkpt>
      <trkpt lat="49.65627" lon="5.00625">
        <ele>139.53</ele>
        <time>2019-10-28T14:39:14Z</time>
      </trkpt>
      <trkpt lat="49.65615" lon="5.00589">
        <ele>140.97</ele>
        <time>2019-10-28T14:39:37Z</time>
      </trkpt>
      <trkpt lat="49.65603" lon="5.00557">
        <ele>142.89</ele>
        <time>2019-10-28T14:39:59Z</time>
      </trkpt>
      <trkpt lat="49.6559" lon="5.0053">
        <ele>143.37</ele>
        <time>2019-10-28T14:40:19Z</time>
      </trkpt>
      <trkpt lat="49.65576" lon="5.00499">
        <ele>143.37</ele>
        <time>2019-10-28T14:40:41Z</time>
      </trkpt>
      <trkpt lat="49.65566" lon="5.00474">
        <ele>142.89</ele>
        <time>2019-10-28T14:40:59Z</time>
      </trkpt>
      <trkpt lat="49.65555" lon="5.00453">
        <ele>143.37</ele>
        <time>2019-10-28T14:41:15Z</time>
      </trkpt>
      <trkpt lat="49.65541" lon="5.00422">
        <ele>143.37</ele>
        <time>2019-10-28T14:41:37Z</time>
      </trkpt>
      <trkpt lat="49.65527" lon="5.00395">
        <ele>143.85</ele>
        <time>2019-10-28T14:41:58Z</time>
      </trkpt>
      <trkpt lat="49.65515" lon="5.00368">
        <ele>143.85</ele>
        <time>2019-10-28T14:42:17Z</time>
      </trkpt>
      <trkpt lat="49.65502" lon="5.00338">
        <ele>145.3</ele>
        <time>2019-10-28T14:42:39Z</time>
      </trkpt>
      <trkpt lat="49.65488" lon="5.00307">
        <ele>144.82</ele>
        <time>2019-10-28T14:43:01Z</time>
      </trkpt>
      <trkpt lat="49.65473" lon="5.00277">
        <ele>144.34</ele>
        <time>2019-10-28T14:43:23Z</time>
      </trkpt>
      <trkpt lat="49.65457" lon="5.00242">
        <ele>144.34</ele>
        <time>2019-10-28T14:43:48Z</time>
      </trkpt>
      <trkpt lat="49.65443" lon="5.00208">
        <ele>146.26</ele>
        <time>2019-10-28T14:44:12Z</time>
      </trkpt>
      <trkpt lat="49.65429" lon="5.00178">
        <ele>145.78</ele>
        <time>2019-10-28T14:44:34Z</time>
      </trkpt>
      <trkpt lat="49.6542" lon="5.00162">
        <ele>146.26</ele>
        <time>2019-10-28T14:44:49Z</time>
      </trkpt>
      <trkpt lat="49.65413" lon="5.00142">
        <ele>148.18</ele>
        <time>2019-10-28T14:45:03Z</time>
      </trkpt>
      <trkpt lat="49.65401" lon="5.00116">
        <ele>148.18</ele>
        <time>2019-10-28T14:45:22Z</time>
      </trkpt>
      <trkpt lat="49.65398" lon="5.00112">
        <ele>148.18</ele>
        <time>2019-10-28T14:45:25Z</time>
      </trkpt>
      <trkpt lat="49.65384" lon="5.00091">
        <ele>147.22</ele>
        <time>2019-10-28T14:45:44Z</time>
      </trkpt>
      <trkpt lat="49.65368" lon="5.00072">
        <ele>147.7</ele>
        <time>2019-10-28T14:46:02Z</time>
      </trkpt>
      <trkpt lat="49.65351" lon="5.00053">
        <ele>147.22</ele>
        <time>2019-10-28T14:46:22Z</time>
      </trkpt>
      <trkpt lat="49.65334" lon="5.00036">
        <ele>143.37</ele>
        <time>2019-10-28T14:46:42Z</time>
      </trkpt>
      <trkpt lat="49.6532" lon="5.00022">
        <ele>141.45</ele>
        <time>2019-10-28T14:47:00Z</time>
      </trkpt>
      <trkpt lat="49.65305" lon="5.00005">
        <ele>140.01</ele>
        <time>2019-10-28T14:47:19Z</time>
      </trkpt>
      <trkpt lat="49.65289" lon="4.99985">
        <ele>140.49</ele>
        <time>2019-10-28T14:47:36Z</time>
      </trkpt>
      <trkpt lat="49.65268" lon="4.99962">
        <ele>144.82</ele>
        <time>2019-10-28T14:47:58Z</time>
      </trkpt>
      <trkpt lat="49.65253" lon="4.99943">
        <ele>143.85</ele>
        <time>2019-10-28T14:48:15Z</time>
      </trkpt>
      <trkpt lat="49.65238" lon="4.99927">
        <ele>142.89</ele>
        <time>2019-10-28T14:48:33Z</time>
      </trkpt>
      <trkpt lat="49.65224" lon="4.9991">
        <ele>142.41</ele>
        <time>2019-10-28T14:48:50Z</time>
      </trkpt>
      <trkpt lat="49.65219" lon="4.99902">
        <ele>143.85</ele>
        <time>2019-10-28T14:49:03Z</time>
      </trkpt>
      <trkpt lat="49.65224" lon="4.99883">
        <ele>147.7</ele>
        <time>2019-10-28T14:49:23Z</time>
      </trkpt>
      <trkpt lat="49.65241" lon="4.99854">
        <ele>150.1</ele>
        <time>2019-10-28T14:49:45Z</time>
      </trkpt>
      <trkpt lat="49.65258" lon="4.99833">
        <ele>150.1</ele>
        <time>2019-10-28T14:50:04Z</time>
      </trkpt>
      <trkpt lat="49.65274" lon="4.99809">
        <ele>150.1</ele>
        <time>2019-10-28T14:50:22Z</time>
      </trkpt>
      <trkpt lat="49.65289" lon="4.99788">
        <ele>149.62</ele>
        <time>2019-10-28T14:50:37Z</time>
      </trkpt>
      <trkpt lat="49.653" lon="4.99768">
        <ele>149.14</ele>
        <time>2019-10-28T14:50:53Z</time>
      </trkpt>
      <trkpt lat="49.65307" lon="4.99742">
        <ele>145.3</ele>
        <time>2019-10-28T14:51:10Z</time>
      </trkpt>
      <trkpt lat="49.65308" lon="4.99741">
        <ele>145.3</ele>
        <time>2019-10-28T14:51:11Z</time>
      </trkpt>
      <trkpt lat="49.65315" lon="4.9971">
        <ele>143.37</ele>
        <time>2019-10-28T14:51:31Z</time>
      </trkpt>
      <trkpt lat="49.65321" lon="4.99697">
        <ele>142.89</ele>
        <time>2019-10-28T14:51:41Z</time>
      </trkpt>
      <trkpt lat="49.65329" lon="4.99673">
        <ele>143.37</ele>
        <time>2019-10-28T14:51:58Z</time>
      </trkpt>
      <trkpt lat="49.65341" lon="4.99646">
        <ele>143.37</ele>
        <time>2019-10-28T14:52:18Z</time>
      </trkpt>
      <trkpt lat="49.6535" lon="4.99622">
        <ele>144.34</ele>
        <time>2019-10-28T14:52:34Z</time>
      </trkpt>
      <trkpt lat="49.65367" lon="4.99596">
        <ele>147.7</ele>
        <time>2019-10-28T14:52:54Z</time>
      </trkpt>
      <trkpt lat="49.6538" lon="4.9957">
        <ele>148.18</ele>
        <time>2019-10-28T14:53:13Z</time>
      </trkpt>
      <trkpt lat="49.65393" lon="4.99545">
        <ele>148.18</ele>
        <time>2019-10-28T14:53:32Z</time>
      </trkpt>
      <trkpt lat="49.65407" lon="4.99521">
        <ele>148.18</ele>
        <time>2019-10-28T14:53:50Z</time>
      </trkpt>
      <trkpt lat="49.65425" lon="4.99492">
        <ele>149.62</ele>
        <time>2019-10-28T14:54:12Z</time>
      </trkpt>
      <trkpt lat="49.65442" lon="4.99461">
        <ele>150.1</ele>
        <time>2019-10-28T14:54:36Z</time>
      </trkpt>
      <trkpt lat="49.65454" lon="4.99437">
        <ele>151.06</ele>
        <time>2019-10-28T14:54:54Z</time>
      </trkpt>
      <trkpt lat="49.65467" lon="4.99413">
        <ele>150.1</ele>
        <time>2019-10-28T14:55:14Z</time>
      </trkpt>
      <trkpt lat="49.65476" lon="4.99397">
        <ele>149.62</ele>
        <time>2019-10-28T14:55:27Z</time>
      </trkpt>
      <trkpt lat="49.65492" lon="4.99373">
        <ele>150.1</ele>
        <time>2019-10-28T14:55:45Z</time>
      </trkpt>
      <trkpt lat="49.65508" lon="4.99348">
        <ele>150.58</ele>
        <time>2019-10-28T14:56:05Z</time>
      </trkpt>
      <trkpt lat="49.65524" lon="4.99321">
        <ele>150.1</ele>
        <time>2019-10-28T14:56:27Z</time>
      </trkpt>
      <trkpt lat="49.65535" lon="4.99301">
        <ele>149.14</ele>
        <time>2019-10-28T14:56:43Z</time>
      </trkpt>
      <trkpt lat="49.65551" lon="4.99275">
        <ele>150.1</ele>
        <time>2019-10-28T14:57:03Z</time>
      </trkpt>
      <trkpt lat="49.65567" lon="4.99246">
        <ele>147.7</ele>
        <time>2019-10-28T14:57:27Z</time>
      </trkpt>
      <trkpt lat="49.65553" lon="4.99228">
        <ele>149.14</ele>
        <time>2019-10-28T14:57:42Z</time>
      </trkpt>
      <trkpt lat="49.65534" lon="4.99217">
        <ele>147.7</ele>
        <time>2019-10-28T14:58:00Z</time>
      </trkpt>
      <trkpt lat="49.65509" lon="4.99204">
        <ele>148.66</ele>
        <time>2019-10-28T14:58:24Z</time>
      </trkpt>
      <trkpt lat="49.65495" lon="4.99198">
        <ele>150.58</ele>
        <time>2019-10-28T14:58:38Z</time>
      </trkpt>
      <trkpt lat="49.65492" lon="4.992">
        <ele>150.58</ele>
        <time>2019-10-28T14:58:41Z</time>
      </trkpt>
      <trkpt lat="49.65489" lon="4.99208">
        <ele>152.03</ele>
        <time>2019-10-28T14:58:47Z</time>
      </trkpt>
      <trkpt lat="49.65481" lon="4.99242">
        <ele>156.35</ele>
        <time>2019-10-28T14:59:07Z</time>
      </trkpt>
      <trkpt lat="49.65472" lon="4.9927">
        <ele>155.87</ele>
        <time>2019-10-28T14:59:24Z</time>
      </trkpt>
      <trkpt lat="49.65465" lon="4.99282">
        <ele>154.91</ele>
        <time>2019-10-28T14:59:34Z</time>
      </trkpt>
      <trkpt lat="49.65458" lon="4.99284">
        <ele>153.95</ele>
        <time>2019-10-28T14:59:40Z</time>
      </trkpt>
      <trkpt lat="49.65455" lon="4.99284">
        <ele>152.99</ele>
        <time>2019-10-28T14:59:44Z</time>
      </trkpt>
      <trkpt lat="49.65439" lon="4.99265">
        <ele>152.99</ele>
        <time>2019-10-28T15:00:03Z</time>
      </trkpt>
      <trkpt lat="49.65426" lon="4.99244">
        <ele>152.03</ele>
        <time>2019-10-28T15:00:21Z</time>
      </trkpt>
      <trkpt lat="49.65412" lon="4.99222">
        <ele>149.62</ele>
        <time>2019-10-28T15:00:39Z</time>
      </trkpt>
      <trkpt lat="49.65397" lon="4.99203">
        <ele>149.14</ele>
        <time>2019-10-28T15:00:57Z</time>
      </trkpt>
      <trkpt lat="49.65383" lon="4.99188">
        <ele>149.14</ele>
        <time>2019-10-28T15:01:11Z</time>
      </trkpt>
      <trkpt lat="49.65379" lon="4.99188">
        <ele>150.58</ele>
        <time>2019-10-28T15:01:15Z</time>
      </trkpt>
      <trkpt lat="49.65369" lon="4.9919">
        <ele>149.62</ele>
        <time>2019-10-28T15:01:31Z</time>
      </trkpt>
      <trkpt lat="49.6537" lon="4.99189">
        <ele>149.62</ele>
        <time>2019-10-28T15:01:32Z</time>
      </trkpt>
      <trkpt lat="49.65372" lon="4.9918">
        <ele>149.14</ele>
        <time>2019-10-28T15:01:38Z</time>
      </trkpt>
      <trkpt lat="49.6537" lon="4.99174">
        <ele>148.66</ele>
        <time>2019-10-28T15:01:42Z</time>
      </trkpt>
      <trkpt lat="49.65355" lon="4.99151">
        <ele>146.74</ele>
        <time>2019-10-28T15:02:01Z</time>
      </trkpt>
      <trkpt lat="49.65341" lon="4.99121">
        <ele>147.22</ele>
        <time>2019-10-28T15:02:23Z</time>
      </trkpt>
      <trkpt lat="49.65332" lon="4.99092">
        <ele>146.74</ele>
        <time>2019-10-28T15:02:40Z</time>
      </trkpt>
      <trkpt lat="49.65324" lon="4.99065">
        <ele>146.74</ele>
        <time>2019-10-28T15:02:59Z</time>
      </trkpt>
      <trkpt lat="49.6531" lon="4.99035">
        <ele>148.18</ele>
        <time>2019-10-28T15:03:19Z</time>
      </trkpt>
      <trkpt lat="49.65291" lon="4.99015">
        <ele>149.62</ele>
        <time>2019-10-28T15:03:39Z</time>
      </trkpt>
      <trkpt lat="49.65288" lon="4.99011">
        <ele>149.62</ele>
        <time>2019-10-28T15:03:43Z</time>
      </trkpt>
      <trkpt lat="49.65267" lon="4.98995">
        <ele>153.95</ele>
        <time>2019-10-28T15:04:03Z</time>
      </trkpt>
      <trkpt lat="49.65244" lon="4.98973">
        <ele>154.43</ele>
        <time>2019-10-28T15:04:26Z</time>
      </trkpt>
      <trkpt lat="49.65226" lon="4.98958">
        <ele>154.43</ele>
        <time>2019-10-28T15:04:43Z</time>
      </trkpt>
      <trkpt lat="49.65205" lon="4.98942">
        <ele>153.47</ele>
        <time>2019-10-28T15:05:05Z</time>
      </trkpt>
      <trkpt lat="49.65186" lon="4.98923">
        <ele>155.87</ele>
        <time>2019-10-28T15:05:28Z</time>
      </trkpt>
      <trkpt lat="49.65165" lon="4.98899">
        <ele>156.83</ele>
        <time>2019-10-28T15:05:49Z</time>
      </trkpt>
      <trkpt lat="49.65145" lon="4.9888">
        <ele>156.35</ele>
        <time>2019-10-28T15:06:10Z</time>
      </trkpt>
      <trkpt lat="49.65127" lon="4.98866">
        <ele>156.83</ele>
        <time>2019-10-28T15:06:28Z</time>
      </trkpt>
      <trkpt lat="49.65106" lon="4.9885">
        <ele>155.39</ele>
        <time>2019-10-28T15:06:47Z</time>
      </trkpt>
      <trkpt lat="49.65087" lon="4.98829">
        <ele>155.39</ele>
        <time>2019-10-28T15:07:08Z</time>
      </trkpt>
      <trkpt lat="49.65067" lon="4.98804">
        <ele>156.35</ele>
        <time>2019-10-28T15:07:32Z</time>
      </trkpt>
      <trkpt lat="49.65046" lon="4.98788">
        <ele>156.35</ele>
        <time>2019-10-28T15:07:51Z</time>
      </trkpt>
      <trkpt lat="49.65026" lon="4.98769">
        <ele>157.79</ele>
        <time>2019-10-28T15:08:12Z</time>
      </trkpt>
      <trkpt lat="49.65019" lon="4.98765">
        <ele>159.24</ele>
        <time>2019-10-28T15:08:19Z</time>
      </trkpt>
      <trkpt lat="49.64999" lon="4.98745">
        <ele>156.35</ele>
        <time>2019-10-28T15:08:40Z</time>
      </trkpt>
      <trkpt lat="49.6498" lon="4.98725">
        <ele>155.87</ele>
        <time>2019-10-28T15:09:01Z</time>
      </trkpt>
      <trkpt lat="49.64959" lon="4.98707">
        <ele>154.43</ele>
        <time>2019-10-28T15:09:22Z</time>
      </trkpt>
      <trkpt lat="49.64939" lon="4.9869">
        <ele>154.91</ele>
        <time>2019-10-28T15:09:43Z</time>
      </trkpt>
      <trkpt lat="49.64927" lon="4.98682">
        <ele>154.43</ele>
        <time>2019-10-28T15:09:56Z</time>
      </trkpt>
      <trkpt lat="49.64914" lon="4.98679">
        <ele>154.91</ele>
        <time>2019-10-28T15:10:12Z</time>
      </trkpt>
      <trkpt lat="49.64898" lon="4.98672">
        <ele>152.99</ele>
        <time>2019-10-28T15:10:28Z</time>
      </trkpt>
      <trkpt lat="49.64876" lon="4.9865">
        <ele>152.03</ele>
        <time>2019-10-28T15:10:52Z</time>
      </trkpt>
      <trkpt lat="49.64853" lon="4.98634">
        <ele>151.06</ele>
        <time>2019-10-28T15:11:14Z</time>
      </trkpt>
      <trkpt lat="49.64832" lon="4.9862">
        <ele>153.47</ele>
        <time>2019-10-28T15:11:35Z</time>
      </trkpt>
      <trkpt lat="49.64809" lon="4.98605">
        <ele>153.47</ele>
        <time>2019-10-28T15:11:58Z</time>
      </trkpt>
      <trkpt lat="49.6479" lon="4.98596">
        <ele>153.47</ele>
        <time>2019-10-28T15:12:17Z</time>
      </trkpt>
      <trkpt lat="49.64771" lon="4.98585">
        <ele>150.58</ele>
        <time>2019-10-28T15:12:36Z</time>
      </trkpt>
      <trkpt lat="49.64753" lon="4.98576">
        <ele>149.62</ele>
        <time>2019-10-28T15:12:55Z</time>
      </trkpt>
      <trkpt lat="49.64744" lon="4.98572">
        <ele>150.58</ele>
        <time>2019-10-28T15:13:02Z</time>
      </trkpt>
      <trkpt lat="49.64724" lon="4.98561">
        <ele>151.54</ele>
        <time>2019-10-28T15:13:21Z</time>
      </trkpt>
      <trkpt lat="49.64708" lon="4.98553">
        <ele>150.1</ele>
        <time>2019-10-28T15:13:38Z</time>
      </trkpt>
      <trkpt lat="49.6469" lon="4.98546">
        <ele>150.58</ele>
        <time>2019-10-28T15:13:56Z</time>
      </trkpt>
      <trkpt lat="49.6467" lon="4.98535">
        <ele>149.14</ele>
        <time>2019-10-28T15:14:16Z</time>
      </trkpt>
      <trkpt lat="49.64646" lon="4.98519">
        <ele>151.06</ele>
        <time>2019-10-28T15:14:38Z</time>
      </trkpt>
      <trkpt lat="49.64628" lon="4.98508">
        <ele>153.47</ele>
        <time>2019-10-28T15:14:55Z</time>
      </trkpt>
      <trkpt lat="49.6461" lon="4.98498">
        <ele>154.43</ele>
        <time>2019-10-28T15:15:13Z</time>
      </trkpt>
      <trkpt lat="49.64591" lon="4.98489">
        <ele>151.54</ele>
        <time>2019-10-28T15:15:32Z</time>
      </trkpt>
      <trkpt lat="49.64572" lon="4.98481">
        <ele>149.62</ele>
        <time>2019-10-28T15:15:52Z</time>
      </trkpt>
      <trkpt lat="49.64556" lon="4.98473">
        <ele>147.7</ele>
        <time>2019-10-28T15:16:09Z</time>
      </trkpt>
      <trkpt lat="49.64533" lon="4.98458">
        <ele>148.18</ele>
        <time>2019-10-28T15:16:30Z</time>
      </trkpt>
      <trkpt lat="49.64517" lon="4.98448">
        <ele>146.26</ele>
        <time>2019-10-28T15:16:46Z</time>
      </trkpt>
      <trkpt lat="49.64495" lon="4.98433">
        <ele>150.1</ele>
        <time>2019-10-28T15:17:03Z</time>
      </trkpt>
      <trkpt lat="49.64491" lon="4.9843">
        <ele>153.47</ele>
        <time>2019-10-28T15:17:19Z</time>
      </trkpt>
      <trkpt lat="49.64486" lon="4.98427">
        <ele>154.43</ele>
        <time>2019-10-28T15:17:35Z</time>
      </trkpt>
      <trkpt lat="49.64471" lon="4.98421">
        <ele>150.1</ele>
        <time>2019-10-28T15:17:52Z</time>
      </trkpt>
      <trkpt lat="49.64468" lon="4.98418">
        <ele>152.03</ele>
        <time>2019-10-28T15:18:11Z</time>
      </trkpt>
      <trkpt lat="49.64467" lon="4.98417">
        <ele>153.95</ele>
        <time>2019-10-28T15:18:35Z</time>
      </trkpt>
      <trkpt lat="49.64466" lon="4.98418">
        <ele>154.91</ele>
        <time>2019-10-28T15:18:56Z</time>
      </trkpt>
      <trkpt lat="49.64459" lon="4.98412">
        <ele>154.43</ele>
        <time>2019-10-28T15:19:16Z</time>
      </trkpt>
      <trkpt lat="49.64448" lon="4.98408">
        <ele>150.58</ele>
        <time>2019-10-28T15:19:31Z</time>
      </trkpt>
      <trkpt lat="49.64432" lon="4.98401">
        <ele>147.7</ele>
        <time>2019-10-28T15:19:47Z</time>
      </trkpt>
      <trkpt lat="49.64411" lon="4.98381">
        <ele>146.74</ele>
        <time>2019-10-28T15:20:06Z</time>
      </trkpt>
      <trkpt lat="49.64397" lon="4.98371">
        <ele>143.85</ele>
        <time>2019-10-28T15:20:21Z</time>
      </trkpt>
      <trkpt lat="49.64378" lon="4.98359">
        <ele>145.78</ele>
        <time>2019-10-28T15:20:38Z</time>
      </trkpt>
      <trkpt lat="49.64359" lon="4.98344">
        <ele>151.54</ele>
        <time>2019-10-28T15:20:53Z</time>
      </trkpt>
      <trkpt lat="49.6434" lon="4.98327">
        <ele>154.91</ele>
        <time>2019-10-28T15:21:11Z</time>
      </trkpt>
      <trkpt lat="49.64328" lon="4.98318">
        <ele>152.51</ele>
        <time>2019-10-28T15:21:26Z</time>
      </trkpt>
      <trkpt lat="49.64315" lon="4.98307">
        <ele>151.06</ele>
        <time>2019-10-28T15:21:43Z</time>
      </trkpt>
      <trkpt lat="49.64303" lon="4.98297">
        <ele>151.06</ele>
        <time>2019-10-28T15:21:56Z</time>
      </trkpt>
      <trkpt lat="49.64294" lon="4.98291">
        <ele>148.18</ele>
        <time>2019-10-28T15:22:09Z</time>
      </trkpt>
      <trkpt lat="49.64284" lon="4.98282">
        <ele>145.78</ele>
        <time>2019-10-28T15:22:22Z</time>
      </trkpt>
      <trkpt lat="49.64267" lon="4.9827">
        <ele>144.82</ele>
        <time>2019-10-28T15:22:37Z</time>
      </trkpt>
      <trkpt lat="49.64247" lon="4.98246">
        <ele>149.62</ele>
        <time>2019-10-28T15:22:54Z</time>
      </trkpt>
      <trkpt lat="49.64228" lon="4.98229">
        <ele>152.51</ele>
        <time>2019-10-28T15:23:12Z</time>
      </trkpt>
      <trkpt lat="49.64213" lon="4.98215">
        <ele>151.54</ele>
        <time>2019-10-28T15:23:28Z</time>
      </trkpt>
      <trkpt lat="49.64196" lon="4.98197">
        <ele>152.99</ele>
        <time>2019-10-28T15:23:46Z</time>
      </trkpt>
      <trkpt lat="49.64183" lon="4.98185">
        <ele>153.47</ele>
        <time>2019-10-28T15:24:02Z</time>
      </trkpt>
      <trkpt lat="49.64169" lon="4.9817">
        <ele>155.87</ele>
        <time>2019-10-28T15:24:17Z</time>
      </trkpt>
      <trkpt lat="49.64156" lon="4.9816">
        <ele>156.83</ele>
        <time>2019-10-28T15:24:31Z</time>
      </trkpt>
      <trkpt lat="49.64144" lon="4.98149">
        <ele>155.87</ele>
        <time>2019-10-28T15:24:46Z</time>
      </trkpt>
      <trkpt lat="49.64132" lon="4.98136">
        <ele>155.87</ele>
        <time>2019-10-28T15:24:58Z</time>
      </trkpt>
      <trkpt lat="49.64114" lon="4.98119">
        <ele>156.35</ele>
        <time>2019-10-28T15:25:15Z</time>
      </trkpt>
      <trkpt lat="49.64101" lon="4.98111">
        <ele>152.03</ele>
        <time>2019-10-28T15:25:27Z</time>
      </trkpt>
      <trkpt lat="49.64084" lon="4.98094">
        <ele>150.58</ele>
        <time>2019-10-28T15:25:44Z</time>
      </trkpt>
      <trkpt lat="49.64068" lon="4.98079">
        <ele>152.51</ele>
        <time>2019-10-28T15:26:01Z</time>
      </trkpt>
      <trkpt lat="49.64058" lon="4.98071">
        <ele>152.51</ele>
        <time>2019-10-28T15:26:13Z</time>
      </trkpt>
      <trkpt lat="49.64046" lon="4.98061">
        <ele>149.62</ele>
        <time>2019-10-28T15:26:26Z</time>
      </trkpt>
      <trkpt lat="49.64036" lon="4.9805">
        <ele>148.66</ele>
        <time>2019-10-28T15:26:36Z</time>
      </trkpt>
      <trkpt lat="49.64019" lon="4.98033">
        <ele>150.1</ele>
        <time>2019-10-28T15:26:51Z</time>
      </trkpt>
      <trkpt lat="49.64008" lon="4.98022">
        <ele>150.58</ele>
        <time>2019-10-28T15:27:03Z</time>
      </trkpt>
      <trkpt lat="49.63992" lon="4.98009">
        <ele>149.62</ele>
        <time>2019-10-28T15:27:20Z</time>
      </trkpt>
      <trkpt lat="49.63981" lon="4.98">
        <ele>147.22</ele>
        <time>2019-10-28T15:27:33Z</time>
      </trkpt>
      <trkpt lat="49.63965" lon="4.97981">
        <ele>151.54</ele>
        <time>2019-10-28T15:27:47Z</time>
      </trkpt>
      <trkpt lat="49.63949" lon="4.97964">
        <ele>153.95</ele>
        <time>2019-10-28T15:28:01Z</time>
      </trkpt>
      <trkpt lat="49.63934" lon="4.97951">
        <ele>154.91</ele>
        <time>2019-10-28T15:28:16Z</time>
      </trkpt>
      <trkpt lat="49.6392" lon="4.97937">
        <ele>157.79</ele>
        <time>2019-10-28T15:28:30Z</time>
      </trkpt>
      <trkpt lat="49.63911" lon="4.97931">
        <ele>152.99</ele>
        <time>2019-10-28T15:28:44Z</time>
      </trkpt>
      <trkpt lat="49.63902" lon="4.97924">
        <ele>150.1</ele>
        <time>2019-10-28T15:28:55Z</time>
      </trkpt>
      <trkpt lat="49.63888" lon="4.9791">
        <ele>148.18</ele>
        <time>2019-10-28T15:29:11Z</time>
      </trkpt>
      <trkpt lat="49.63873" lon="4.97899">
        <ele>148.18</ele>
        <time>2019-10-28T15:29:26Z</time>
      </trkpt>
      <trkpt lat="49.63859" lon="4.97883">
        <ele>149.14</ele>
        <time>2019-10-28T15:29:42Z</time>
      </trkpt>
      <trkpt lat="49.63844" lon="4.97868">
        <ele>147.22</ele>
        <time>2019-10-28T15:29:58Z</time>
      </trkpt>
      <trkpt lat="49.6383" lon="4.97857">
        <ele>150.1</ele>
        <time>2019-10-28T15:30:13Z</time>
      </trkpt>
      <trkpt lat="49.63816" lon="4.97841">
        <ele>152.99</ele>
        <time>2019-10-28T15:30:27Z</time>
      </trkpt>
      <trkpt lat="49.63797" lon="4.97824">
        <ele>154.43</ele>
        <time>2019-10-28T15:30:45Z</time>
      </trkpt>
      <trkpt lat="49.63784" lon="4.97809">
        <ele>153.95</ele>
        <time>2019-10-28T15:31:00Z</time>
      </trkpt>
      <trkpt lat="49.63767" lon="4.97791">
        <ele>154.43</ele>
        <time>2019-10-28T15:31:18Z</time>
      </trkpt>
      <trkpt lat="49.63747" lon="4.97776">
        <ele>157.31</ele>
        <time>2019-10-28T15:31:38Z</time>
      </trkpt>
      <trkpt lat="49.63739" lon="4.97773">
        <ele>158.75</ele>
        <time>2019-10-28T15:31:44Z</time>
      </trkpt>
      <trkpt lat="49.63719" lon="4.97758">
        <ele>159.72</ele>
        <time>2019-10-28T15:32:05Z</time>
      </trkpt>
      <trkpt lat="49.637" lon="4.97741">
        <ele>163.56</ele>
        <time>2019-10-28T15:32:24Z</time>
      </trkpt>
      <trkpt lat="49.63683" lon="4.97724">
        <ele>163.08</ele>
        <time>2019-10-28T15:32:43Z</time>
      </trkpt>
      <trkpt lat="49.63667" lon="4.97712">
        <ele>165.48</ele>
        <time>2019-10-28T15:32:59Z</time>
      </trkpt>
      <trkpt lat="49.63649" lon="4.97696">
        <ele>167.89</ele>
        <time>2019-10-28T15:33:17Z</time>
      </trkpt>
      <trkpt lat="49.63634" lon="4.9768">
        <ele>167.41</ele>
        <time>2019-10-28T15:33:35Z</time>
      </trkpt>
      <trkpt lat="49.63611" lon="4.97659">
        <ele>172.21</ele>
        <time>2019-10-28T15:33:59Z</time>
      </trkpt>
      <trkpt lat="49.63594" lon="4.97673">
        <ele>166.93</ele>
        <time>2019-10-28T15:34:16Z</time>
      </trkpt>
      <trkpt lat="49.63585" lon="4.97683">
        <ele>168.85</ele>
        <time>2019-10-28T15:34:32Z</time>
      </trkpt>
      <trkpt lat="49.63578" lon="4.97691">
        <ele>171.25</ele>
        <time>2019-10-28T15:34:47Z</time>
      </trkpt>
      <trkpt lat="49.63575" lon="4.97696">
        <ele>171.25</ele>
        <time>2019-10-28T15:34:52Z</time>
      </trkpt>
      <trkpt lat="49.6356" lon="4.97726">
        <ele>168.85</ele>
        <time>2019-10-28T15:35:07Z</time>
      </trkpt>
      <trkpt lat="49.63556" lon="4.97735">
        <ele>169.33</ele>
        <time>2019-10-28T15:35:12Z</time>
      </trkpt>
      <trkpt lat="49.63543" lon="4.97767">
        <ele>169.81</ele>
        <time>2019-10-28T15:35:31Z</time>
      </trkpt>
      <trkpt lat="49.63541" lon="4.97774">
        <ele>169.33</ele>
        <time>2019-10-28T15:35:37Z</time>
      </trkpt>
      <trkpt lat="49.63522" lon="4.97794">
        <ele>168.37</ele>
        <time>2019-10-28T15:35:54Z</time>
      </trkpt>
      <trkpt lat="49.63511" lon="4.97802">
        <ele>167.41</ele>
        <time>2019-10-28T15:36:09Z</time>
      </trkpt>
      <trkpt lat="49.63496" lon="4.97818">
        <ele>167.89</ele>
        <time>2019-10-28T15:36:22Z</time>
      </trkpt>
      <trkpt lat="49.63485" lon="4.97832">
        <ele>167.89</ele>
        <time>2019-10-28T15:36:38Z</time>
      </trkpt>
      <trkpt lat="49.6348" lon="4.97851">
        <ele>167.89</ele>
        <time>2019-10-28T15:36:51Z</time>
      </trkpt>
      <trkpt lat="49.63469" lon="4.97867">
        <ele>169.33</ele>
        <time>2019-10-28T15:37:06Z</time>
      </trkpt>
      <trkpt lat="49.6346" lon="4.9788">
        <ele>167.89</ele>
        <time>2019-10-28T15:37:16Z</time>
      </trkpt>
      <trkpt lat="49.63446" lon="4.97895">
        <ele>167.89</ele>
        <time>2019-10-28T15:37:32Z</time>
      </trkpt>
      <trkpt lat="49.63445" lon="4.97896">
        <ele>168.85</ele>
        <time>2019-10-28T15:37:34Z</time>
      </trkpt>
      <trkpt lat="49.6343" lon="4.97903">
        <ele>172.21</ele>
        <time>2019-10-28T15:37:48Z</time>
      </trkpt>
      <trkpt lat="49.63417" lon="4.9791">
        <ele>174.62</ele>
        <time>2019-10-28T15:38:01Z</time>
      </trkpt>
      <trkpt lat="49.63406" lon="4.97918">
        <ele>175.58</ele>
        <time>2019-10-28T15:38:16Z</time>
      </trkpt>
      <trkpt lat="49.63396" lon="4.97927">
        <ele>177.02</ele>
        <time>2019-10-28T15:38:30Z</time>
      </trkpt>
      <trkpt lat="49.63391" lon="4.97944">
        <ele>175.1</ele>
        <time>2019-10-28T15:38:44Z</time>
      </trkpt>
      <trkpt lat="49.6339" lon="4.97951">
        <ele>174.14</ele>
        <time>2019-10-28T15:38:49Z</time>
      </trkpt>
      <trkpt lat="49.63395" lon="4.9797">
        <ele>174.14</ele>
        <time>2019-10-28T15:39:02Z</time>
      </trkpt>
      <trkpt lat="49.63403" lon="4.9799">
        <ele>176.06</ele>
        <time>2019-10-28T15:39:16Z</time>
      </trkpt>
      <trkpt lat="49.6341" lon="4.98003">
        <ele>178.94</ele>
        <time>2019-10-28T15:39:26Z</time>
      </trkpt>
      <trkpt lat="49.63418" lon="4.98014">
        <ele>178.46</ele>
        <time>2019-10-28T15:39:37Z</time>
      </trkpt>
      <trkpt lat="49.63429" lon="4.98031">
        <ele>178.94</ele>
        <time>2019-10-28T15:39:52Z</time>
      </trkpt>
      <trkpt lat="49.6344" lon="4.98045">
        <ele>180.87</ele>
        <time>2019-10-28T15:40:04Z</time>
      </trkpt>
      <trkpt lat="49.63456" lon="4.9805">
        <ele>180.87</ele>
        <time>2019-10-28T15:40:20Z</time>
      </trkpt>
      <trkpt lat="49.63458" lon="4.9805">
        <ele>180.87</ele>
        <time>2019-10-28T15:40:36Z</time>
      </trkpt>
      <trkpt lat="49.63457" lon="4.9805">
        <ele>181.83</ele>
        <time>2019-10-28T15:40:44Z</time>
      </trkpt>
    </trkseg>
  </trk>
</gpx>